<?xml version='1.0' encoding='UTF-8'?><gpx version="1.1" creator="JPX - https://github.com/jenetics/jpx" xmlns="http://www.topografix.com/GPX/1/1"><trk><trkseg><trkpt lat="46.03203479470749" lon="11.45834453662957"><ele>531.0</ele><time>2026-05-04T14:23:31.999Z</time></trkpt><trkpt lat="46.03198312597512" lon="11.458292406868795"><ele>531.0</ele><time>2026-05-04T14:23:37.999Z</time></trkpt><trkpt lat="46.03192884353426" lon="11.458220413051164"><ele>531.0</ele><time>2026-05-04T14:23:43.999Z</time></trkpt><trkpt lat="46.03187378720092" lon="11.458157005882668"><ele>531.0</ele><time>2026-05-04T14:23:50Z</time></trkpt><trkpt lat="46.03182862992984" lon="11.45809183841285"><ele>531.0</ele><time>2026-05-04T14:23:54Z</time></trkpt><trkpt lat="46.03178883337516" lon="11.458016909346501"><ele>531.0</ele><time>2026-05-04T14:24:00Z</time></trkpt><trkpt lat="46.03174253015713" lon="11.457949940304989"><ele>531.0</ele><time>2026-05-04T14:24:06Z</time></trkpt><trkpt lat="46.031785168050796" lon="11.458029763161381"><ele>531.0</ele><time>2026-05-04T14:24:14Z</time></trkpt><trkpt lat="46.03183858396461" lon="11.458111828933326"><ele>531.0</ele><time>2026-05-04T14:24:20Z</time></trkpt><trkpt lat="46.03188755000554" lon="11.4581741528497"><ele>531.0</ele><time>2026-05-04T14:24:26Z</time></trkpt><trkpt lat="46.03194498058305" lon="11.458227784981784"><ele>531.0</ele><time>2026-05-04T14:24:32Z</time></trkpt><trkpt lat="46.032013845679685" lon="11.45827079298724"><ele>531.0</ele><time>2026-05-04T14:24:39Z</time></trkpt><trkpt lat="46.03205414624015" lon="11.458360076298955"><ele>531.0</ele><time>2026-05-04T14:24:53Z</time></trkpt><trkpt lat="46.032036956937034" lon="11.458510731160748"><ele>531.0</ele><time>2026-05-04T14:24:56Z</time></trkpt><trkpt lat="46.031991485442184" lon="11.458585120615835"><ele>531.0</ele><time>2026-05-04T14:25:03Z</time></trkpt><trkpt lat="46.031953831534" lon="11.458676616999298"><ele>531.0</ele><time>2026-05-04T14:25:09Z</time></trkpt><trkpt lat="46.03191153998444" lon="11.458768343512572"><ele>531.0</ele><time>2026-05-04T14:25:15Z</time></trkpt><trkpt lat="46.03186748432353" lon="11.458838852344531"><ele>531.0</ele><time>2026-05-04T14:25:20.999Z</time></trkpt><trkpt lat="46.031816929684304" lon="11.45890780777336"><ele>531.0</ele><time>2026-05-04T14:25:27.999Z</time></trkpt><trkpt lat="46.031756695920386" lon="11.458960651254687"><ele>531.0</ele><time>2026-05-04T14:25:34.999Z</time></trkpt><trkpt lat="46.031686757487144" lon="11.458998665539474"><ele>532.8571428571429</ele><time>2026-05-04T14:25:39.999Z</time></trkpt><trkpt lat="46.031621211358214" lon="11.459017220529216"><ele>534.7142857142858</ele><time>2026-05-04T14:25:48Z</time></trkpt><trkpt lat="46.03155513534735" lon="11.45905778610192"><ele>536.5714285714286</ele><time>2026-05-04T14:25:54Z</time></trkpt><trkpt lat="46.03149909935472" lon="11.459122817559484"><ele>538.4285714285714</ele><time>2026-05-04T14:26:00Z</time></trkpt><trkpt lat="46.031440014710476" lon="11.459178950768296"><ele>540.2857142857142</ele><time>2026-05-04T14:26:06Z</time></trkpt><trkpt lat="46.03138779118829" lon="11.45924556972959"><ele>542.1428571428571</ele><time>2026-05-04T14:26:13Z</time></trkpt><trkpt lat="46.0313398064371" lon="11.4593113933761"><ele>544.0</ele><time>2026-05-04T14:26:18Z</time></trkpt><trkpt lat="46.03128983342096" lon="11.459372952516864"><ele>543.9999999999999</ele><time>2026-05-04T14:26:24Z</time></trkpt><trkpt lat="46.03123540078513" lon="11.459449710863916"><ele>544.0</ele><time>2026-05-04T14:26:31Z</time></trkpt><trkpt lat="46.03117390451107" lon="11.459494664671778"><ele>544.0</ele><time>2026-05-04T14:26:37Z</time></trkpt><trkpt lat="46.03110494881259" lon="11.459502313068807"><ele>544.0</ele><time>2026-05-04T14:26:43Z</time></trkpt><trkpt lat="46.03104103612788" lon="11.459531763468242"><ele>544.0</ele><time>2026-05-04T14:26:50Z</time></trkpt><trkpt lat="46.03098183886342" lon="11.459575609156346"><ele>543.9999999999999</ele><time>2026-05-04T14:26:59Z</time></trkpt><trkpt lat="46.03092502407415" lon="11.459617899165172"><ele>544.0</ele><time>2026-05-04T14:27:05Z</time></trkpt><trkpt lat="46.030863674001566" lon="11.45966898170109"><ele>546.7142857142857</ele><time>2026-05-04T14:27:12Z</time></trkpt><trkpt lat="46.03079876019247" lon="11.459714397465769"><ele>549.4285714285714</ele><time>2026-05-04T14:27:19Z</time></trkpt><trkpt lat="46.030735797323395" lon="11.459761203001351"><ele>552.1428571428571</ele><time>2026-05-04T14:27:26Z</time></trkpt><trkpt lat="46.030676819249315" lon="11.459815456929926"><ele>554.8571428571429</ele><time>2026-05-04T14:27:32Z</time></trkpt><trkpt lat="46.03061894620601" lon="11.45986331579618"><ele>557.5714285714286</ele><time>2026-05-04T14:27:38Z</time></trkpt><trkpt lat="46.03056026191507" lon="11.459924341583262"><ele>560.2857142857142</ele><time>2026-05-04T14:27:45Z</time></trkpt><trkpt lat="46.03049861738612" lon="11.459962134322495"><ele>563.0</ele><time>2026-05-04T14:27:51Z</time></trkpt><trkpt lat="46.03043759295008" lon="11.45999483562236"><ele>563.0</ele><time>2026-05-04T14:27:57Z</time></trkpt><trkpt lat="46.030371842285675" lon="11.460032408620666"><ele>563.0</ele><time>2026-05-04T14:28:03Z</time></trkpt><trkpt lat="46.03031202335315" lon="11.460065919974305"><ele>563.0</ele><time>2026-05-04T14:28:09Z</time></trkpt><trkpt lat="46.03025688510673" lon="11.460002369371391"><ele>563.0</ele><time>2026-05-04T14:28:21Z</time></trkpt><trkpt lat="46.03020675027657" lon="11.459937277049322"><ele>563.0</ele><time>2026-05-04T14:28:25Z</time></trkpt><trkpt lat="46.03013991924378" lon="11.45990870402688"><ele>563.0</ele><time>2026-05-04T14:28:28Z</time></trkpt><trkpt lat="46.03007194469198" lon="11.459881138152003"><ele>563.0</ele><time>2026-05-04T14:28:34Z</time></trkpt><trkpt lat="46.03002040033927" lon="11.459807324003673"><ele>563.0</ele><time>2026-05-04T14:28:40Z</time></trkpt><trkpt lat="46.02997719002875" lon="11.459739931420188"><ele>563.0</ele><time>2026-05-04T14:28:45Z</time></trkpt><trkpt lat="46.02994412724864" lon="11.459655463063202"><ele>563.0</ele><time>2026-05-04T14:28:51Z</time></trkpt><trkpt lat="46.02992014971499" lon="11.45956477052731"><ele>563.0</ele><time>2026-05-04T14:28:57Z</time></trkpt><trkpt lat="46.029898604517996" lon="11.459475048055038"><ele>563.0</ele><time>2026-05-04T14:29:02Z</time></trkpt><trkpt lat="46.02987576256808" lon="11.459384044158394"><ele>563.0</ele><time>2026-05-04T14:29:08Z</time></trkpt><trkpt lat="46.02986299684831" lon="11.459294479871813"><ele>563.0</ele><time>2026-05-04T14:29:14Z</time></trkpt><trkpt lat="46.02984479545411" lon="11.459205505538442"><ele>563.5714285714286</ele><time>2026-05-04T14:29:19Z</time></trkpt><trkpt lat="46.029778668318215" lon="11.459182578150836"><ele>564.1428571428571</ele><time>2026-05-04T14:29:27Z</time></trkpt><trkpt lat="46.029735207280474" lon="11.459250006396642"><ele>564.7142857142858</ele><time>2026-05-04T14:29:32Z</time></trkpt><trkpt lat="46.029692921546605" lon="11.45932228746384"><ele>565.2857142857142</ele><time>2026-05-04T14:29:38Z</time></trkpt><trkpt lat="46.029645347827994" lon="11.459399890016815"><ele>565.8571428571429</ele><time>2026-05-04T14:29:44Z</time></trkpt><trkpt lat="46.02959702041934" lon="11.459473670511516"><ele>566.4285714285714</ele><time>2026-05-04T14:29:50Z</time></trkpt><trkpt lat="46.02953362560585" lon="11.459446579726482"><ele>567.0</ele><time>2026-05-04T14:29:56Z</time></trkpt><trkpt lat="46.02947171463907" lon="11.459401095345095"><ele>567.0</ele><time>2026-05-04T14:30:02Z</time></trkpt><trkpt lat="46.02940721678784" lon="11.459359355103249"><ele>567.0</ele><time>2026-05-04T14:30:08Z</time></trkpt><trkpt lat="46.02934609713801" lon="11.45932137969024"><ele>567.0</ele><time>2026-05-04T14:30:14Z</time></trkpt><trkpt lat="46.02928690392957" lon="11.459285640374913"><ele>567.0</ele><time>2026-05-04T14:30:20Z</time></trkpt><trkpt lat="46.029223071296734" lon="11.45925943750085"><ele>567.0</ele><time>2026-05-04T14:30:26Z</time></trkpt><trkpt lat="46.02916497651583" lon="11.459313610325687"><ele>567.0</ele><time>2026-05-04T14:30:34Z</time></trkpt><trkpt lat="46.02911174038784" lon="11.45926500005437"><ele>567.0</ele><time>2026-05-04T14:30:42Z</time></trkpt><trkpt lat="46.02905022696045" lon="11.45922974222416"><ele>568.2857142857143</ele><time>2026-05-04T14:30:48Z</time></trkpt><trkpt lat="46.02899013078867" lon="11.459192563998736"><ele>569.5714285714286</ele><time>2026-05-04T14:30:54Z</time></trkpt><trkpt lat="46.028927340666705" lon="11.459158853956657"><ele>570.8571428571429</ele><time>2026-05-04T14:31:01Z</time></trkpt><trkpt lat="46.028861194743214" lon="11.459117530696872"><ele>572.1428571428571</ele><time>2026-05-04T14:31:07Z</time></trkpt><trkpt lat="46.028803887110044" lon="11.459076238336804"><ele>573.4285714285714</ele><time>2026-05-04T14:31:12Z</time></trkpt><trkpt lat="46.0287392136118" lon="11.459041637688625"><ele>574.7142857142858</ele><time>2026-05-04T14:31:18Z</time></trkpt><trkpt lat="46.028670383049096" lon="11.459010487031625"><ele>576.0</ele><time>2026-05-04T14:31:24Z</time></trkpt><trkpt lat="46.02861105432586" lon="11.458977307909835"><ele>576.0000000000001</ele><time>2026-05-04T14:31:29Z</time></trkpt><trkpt lat="46.02854429100901" lon="11.458936667001826"><ele>576.0</ele><time>2026-05-04T14:31:35Z</time></trkpt><trkpt lat="46.028476605703396" lon="11.458904031048592"><ele>576.0</ele><time>2026-05-04T14:31:42Z</time></trkpt><trkpt lat="46.02841441095047" lon="11.45886718187989"><ele>576.0</ele><time>2026-05-04T14:31:48Z</time></trkpt><trkpt lat="46.02834974384696" lon="11.458823196039381"><ele>576.0</ele><time>2026-05-04T14:31:54Z</time></trkpt><trkpt lat="46.02828298662167" lon="11.458786790035909"><ele>576.0000000000001</ele><time>2026-05-04T14:32:01Z</time></trkpt><trkpt lat="46.02821901797107" lon="11.458747897715691"><ele>576.0</ele><time>2026-05-04T14:32:08Z</time></trkpt><trkpt lat="46.02814831131834" lon="11.458713108626615"><ele>576.0000000000001</ele><time>2026-05-04T14:32:14Z</time></trkpt><trkpt lat="46.02807831356282" lon="11.45868138165703"><ele>576.0</ele><time>2026-05-04T14:32:20Z</time></trkpt><trkpt lat="46.028010830151935" lon="11.458646301786745"><ele>576.0</ele><time>2026-05-04T14:32:26Z</time></trkpt><trkpt lat="46.02794622397108" lon="11.458602462378842"><ele>576.0</ele><time>2026-05-04T14:32:33Z</time></trkpt><trkpt lat="46.02788102969336" lon="11.458557387017366"><ele>576.0</ele><time>2026-05-04T14:32:40Z</time></trkpt><trkpt lat="46.027820331217" lon="11.45851763184052"><ele>576.0000000000001</ele><time>2026-05-04T14:32:46Z</time></trkpt><trkpt lat="46.02774560828467" lon="11.458462554472609"><ele>576.0</ele><time>2026-05-04T14:32:54Z</time></trkpt><trkpt lat="46.02767907571964" lon="11.458439091061951"><ele>576.0000000000001</ele><time>2026-05-04T14:33:01Z</time></trkpt><trkpt lat="46.02761317655658" lon="11.458403079268491"><ele>576.0</ele><time>2026-05-04T14:33:08Z</time></trkpt><trkpt lat="46.02755467323128" lon="11.458365414954244"><ele>576.0</ele><time>2026-05-04T14:33:13Z</time></trkpt><trkpt lat="46.027495110495245" lon="11.458319968663119"><ele>576.0</ele><time>2026-05-04T14:33:19Z</time></trkpt><trkpt lat="46.02743333206581" lon="11.458283984250803"><ele>576.0</ele><time>2026-05-04T14:33:25Z</time></trkpt><trkpt lat="46.027377464849856" lon="11.45823935110746"><ele>576.0000000000001</ele><time>2026-05-04T14:33:31Z</time></trkpt><trkpt lat="46.02732189611136" lon="11.458100872313572"><ele>576.0</ele><time>2026-05-04T14:33:38Z</time></trkpt><trkpt lat="46.02718025682549" lon="11.45804834816741"><ele>578.4</ele><time>2026-05-04T14:33:41Z</time></trkpt><trkpt lat="46.0270360041146" lon="11.458086216856548"><ele>580.8</ele><time>2026-05-04T14:33:43Z</time></trkpt><trkpt lat="46.02720521278653" lon="11.458131588170042"><ele>583.1999999999999</ele><time>2026-05-04T14:33:44Z</time></trkpt><trkpt lat="46.027140769837004" lon="11.458127698276588"><ele>585.6</ele><time>2026-05-04T14:33:50Z</time></trkpt><trkpt lat="46.027077182066066" lon="11.45810096369187"><ele>588.0</ele><time>2026-05-04T14:33:55Z</time></trkpt><trkpt lat="46.02701414639733" lon="11.458085624595178"><ele>588.0</ele><time>2026-05-04T14:34:01Z</time></trkpt><trkpt lat="46.026948527042876" lon="11.458086912114775"><ele>588.0</ele><time>2026-05-04T14:34:07Z</time></trkpt><trkpt lat="46.02687582078773" lon="11.458077243792005"><ele>588.0</ele><time>2026-05-04T14:34:14Z</time></trkpt><trkpt lat="46.026808888971914" lon="11.458062840094044"><ele>588.0</ele><time>2026-05-04T14:34:20Z</time></trkpt><trkpt lat="46.02674226773224" lon="11.458054946702543"><ele>588.0</ele><time>2026-05-04T14:34:26Z</time></trkpt><trkpt lat="46.02667005463961" lon="11.458044886829056"><ele>588.0</ele><time>2026-05-04T14:34:35Z</time></trkpt><trkpt lat="46.02660498196535" lon="11.458048575825117"><ele>588.0</ele><time>2026-05-04T14:34:41Z</time></trkpt><trkpt lat="46.026531717308636" lon="11.458029291885559"><ele>589.7142857142857</ele><time>2026-05-04T14:34:46Z</time></trkpt><trkpt lat="46.0264679258804" lon="11.458020522172388"><ele>591.4285714285714</ele><time>2026-05-04T14:34:51Z</time></trkpt><trkpt lat="46.0264006643212" lon="11.458007933464712"><ele>593.1428571428571</ele><time>2026-05-04T14:34:57Z</time></trkpt><trkpt lat="46.02633486052761" lon="11.457985914816408"><ele>594.8571428571429</ele><time>2026-05-04T14:35:03Z</time></trkpt><trkpt lat="46.026259315839226" lon="11.457950549352443"><ele>596.5714285714286</ele><time>2026-05-04T14:35:09Z</time></trkpt><trkpt lat="46.02619757529608" lon="11.457906340390341"><ele>598.2857142857142</ele><time>2026-05-04T14:35:15Z</time></trkpt><trkpt lat="46.026148362228064" lon="11.457843810815566"><ele>600.0</ele><time>2026-05-04T14:35:21Z</time></trkpt><trkpt lat="46.02610616927898" lon="11.457773998452849"><ele>600.2857142857142</ele><time>2026-05-04T14:35:26Z</time></trkpt><trkpt lat="46.026062678888096" lon="11.45769577734866"><ele>600.5714285714286</ele><time>2026-05-04T14:35:31Z</time></trkpt><trkpt lat="46.026040395176686" lon="11.457602130099364"><ele>600.8571428571429</ele><time>2026-05-04T14:35:38Z</time></trkpt><trkpt lat="46.026017978322606" lon="11.457496979104523"><ele>601.1428571428571</ele><time>2026-05-04T14:35:45Z</time></trkpt><trkpt lat="46.02599543850017" lon="11.457409274107142"><ele>601.4285714285714</ele><time>2026-05-04T14:35:51Z</time></trkpt><trkpt lat="46.02597417619164" lon="11.45732234802131"><ele>601.7142857142857</ele><time>2026-05-04T14:35:57Z</time></trkpt><trkpt lat="46.02594452393632" lon="11.457237692116303"><ele>602.0</ele><time>2026-05-04T14:36:03Z</time></trkpt><trkpt lat="46.02591526225794" lon="11.457137610091047"><ele>601.2857142857143</ele><time>2026-05-04T14:36:09Z</time></trkpt><trkpt lat="46.025881338058944" lon="11.457048424402407"><ele>600.5714285714286</ele><time>2026-05-04T14:36:15Z</time></trkpt><trkpt lat="46.025845857441766" lon="11.456969289772852"><ele>599.8571428571429</ele><time>2026-05-04T14:36:20Z</time></trkpt><trkpt lat="46.02579340681845" lon="11.456884450987173"><ele>599.1428571428571</ele><time>2026-05-04T14:36:28Z</time></trkpt><trkpt lat="46.02574625254712" lon="11.456809490518063"><ele>598.4285714285714</ele><time>2026-05-04T14:36:34Z</time></trkpt><trkpt lat="46.02569806837725" lon="11.45673293162698"><ele>597.7142857142858</ele><time>2026-05-04T14:36:40Z</time></trkpt><trkpt lat="46.02565984445995" lon="11.456655225854371"><ele>597.0</ele><time>2026-05-04T14:36:51Z</time></trkpt><trkpt lat="46.02561345101978" lon="11.456590853060328"><ele>599.2857142857143</ele><time>2026-05-04T14:36:57Z</time></trkpt><trkpt lat="46.025566945755074" lon="11.45651389975286"><ele>601.5714285714286</ele><time>2026-05-04T14:37:03Z</time></trkpt><trkpt lat="46.025536337880446" lon="11.456418108587387"><ele>603.8571428571429</ele><time>2026-05-04T14:37:10Z</time></trkpt><trkpt lat="46.025497280578975" lon="11.456329863766971"><ele>606.1428571428571</ele><time>2026-05-04T14:37:17Z</time></trkpt><trkpt lat="46.02546696112285" lon="11.45623796447794"><ele>608.4285714285714</ele><time>2026-05-04T14:37:22Z</time></trkpt><trkpt lat="46.02542505539772" lon="11.456149726508873"><ele>610.7142857142858</ele><time>2026-05-04T14:37:32Z</time></trkpt><trkpt lat="46.02537202102403" lon="11.456077894554825"><ele>613.0</ele><time>2026-05-04T14:37:38Z</time></trkpt><trkpt lat="46.02532700892283" lon="11.456002152103228"><ele>613.0</ele><time>2026-05-04T14:37:43Z</time></trkpt><trkpt lat="46.02528285180408" lon="11.45593697477671"><ele>613.0</ele><time>2026-05-04T14:37:48Z</time></trkpt><trkpt lat="46.02523266531255" lon="11.455871545260267"><ele>613.0</ele><time>2026-05-04T14:37:54Z</time></trkpt><trkpt lat="46.0251817345238" lon="11.455797707119109"><ele>613.0</ele><time>2026-05-04T14:37:59Z</time></trkpt><trkpt lat="46.025120257151826" lon="11.455762520584868"><ele>613.0</ele><time>2026-05-04T14:38:05Z</time></trkpt><trkpt lat="46.02505246445283" lon="11.455752293227478"><ele>613.0</ele><time>2026-05-04T14:38:10Z</time></trkpt><trkpt lat="46.02498239803587" lon="11.455736991482658"><ele>613.0</ele><time>2026-05-04T14:38:17Z</time></trkpt><trkpt lat="46.02491755852054" lon="11.455748299271324"><ele>614.2857142857143</ele><time>2026-05-04T14:38:23Z</time></trkpt><trkpt lat="46.024850196913725" lon="11.455742091319491"><ele>615.5714285714286</ele><time>2026-05-04T14:38:29Z</time></trkpt><trkpt lat="46.024773442219356" lon="11.455735688726676"><ele>616.8571428571429</ele><time>2026-05-04T14:38:35Z</time></trkpt><trkpt lat="46.024700899165666" lon="11.455716329180499"><ele>618.1428571428571</ele><time>2026-05-04T14:38:41Z</time></trkpt><trkpt lat="46.0246290659166" lon="11.455666017459789"><ele>619.4285714285714</ele><time>2026-05-04T14:38:48Z</time></trkpt><trkpt lat="46.02458058585486" lon="11.455599716805573"><ele>620.7142857142857</ele><time>2026-05-04T14:38:54Z</time></trkpt><trkpt lat="46.02453199306678" lon="11.45553739400039"><ele>622.0</ele><time>2026-05-04T14:39:01Z</time></trkpt><trkpt lat="46.024483240929285" lon="11.455470091015108"><ele>622.4285714285714</ele><time>2026-05-04T14:39:08Z</time></trkpt><trkpt lat="46.02442917657798" lon="11.455399462213133"><ele>622.8571428571429</ele><time>2026-05-04T14:39:14Z</time></trkpt><trkpt lat="46.02437815523514" lon="11.455317273714298"><ele>623.2857142857143</ele><time>2026-05-04T14:39:23Z</time></trkpt><trkpt lat="46.02431459296434" lon="11.455271415167095"><ele>623.7142857142858</ele><time>2026-05-04T14:39:28Z</time></trkpt><trkpt lat="46.02425087858167" lon="11.455241912161318"><ele>624.1428571428571</ele><time>2026-05-04T14:39:34Z</time></trkpt><trkpt lat="46.024204940115624" lon="11.455177090503044"><ele>624.5714285714287</ele><time>2026-05-04T14:39:40Z</time></trkpt><trkpt lat="46.02416421329562" lon="11.455105937603165"><ele>625.0</ele><time>2026-05-04T14:39:45Z</time></trkpt><trkpt lat="46.02411082691157" lon="11.455039277430357"><ele>625.0000000000001</ele><time>2026-05-04T14:39:50Z</time></trkpt><trkpt lat="46.02404372645006" lon="11.45501013968189"><ele>625.0</ele><time>2026-05-04T14:39:58Z</time></trkpt><trkpt lat="46.023994546281465" lon="11.454950945801608"><ele>625.0</ele><time>2026-05-04T14:40:03Z</time></trkpt><trkpt lat="46.023932254905695" lon="11.45490814478278"><ele>625.0</ele><time>2026-05-04T14:40:13Z</time></trkpt><trkpt lat="46.023875841630115" lon="11.454850569019342"><ele>625.0</ele><time>2026-05-04T14:40:20Z</time></trkpt><trkpt lat="46.02381836829534" lon="11.454795274876291"><ele>625.0000000000001</ele><time>2026-05-04T14:40:27Z</time></trkpt><trkpt lat="46.023753332682524" lon="11.454743741956534"><ele>625.0</ele><time>2026-05-04T14:40:35Z</time></trkpt><trkpt lat="46.02369338996998" lon="11.454688542547757"><ele>625.0000000000001</ele><time>2026-05-04T14:40:41Z</time></trkpt><trkpt lat="46.02363463377398" lon="11.45464607796633"><ele>625.0</ele><time>2026-05-04T14:40:47Z</time></trkpt><trkpt lat="46.02357365407707" lon="11.454585062882835"><ele>625.0</ele><time>2026-05-04T14:40:53Z</time></trkpt><trkpt lat="46.02352044546414" lon="11.454534190761114"><ele>625.0</ele><time>2026-05-04T14:40:58Z</time></trkpt><trkpt lat="46.02346531595942" lon="11.454484099368267"><ele>625.0</ele><time>2026-05-04T14:41:05Z</time></trkpt><trkpt lat="46.023462460248545" lon="11.454376470925704"><ele>625.0000000000001</ele><time>2026-05-04T14:41:14Z</time></trkpt><trkpt lat="46.023507807464945" lon="11.454312799603798"><ele>625.0</ele><time>2026-05-04T14:41:26Z</time></trkpt><trkpt lat="46.02355861003527" lon="11.454245590512345"><ele>624.5714285714287</ele><time>2026-05-04T14:41:33Z</time></trkpt><trkpt lat="46.023581996978635" lon="11.4541424546101"><ele>624.1428571428571</ele><time>2026-05-04T14:41:42Z</time></trkpt><trkpt lat="46.02359455737658" lon="11.454052185628496"><ele>623.7142857142858</ele><time>2026-05-04T14:41:51Z</time></trkpt><trkpt lat="46.02362395363117" lon="11.453965382520751"><ele>623.2857142857143</ele><time>2026-05-04T14:42:00Z</time></trkpt><trkpt lat="46.023666088449716" lon="11.45389254529416"><ele>622.8571428571429</ele><time>2026-05-04T14:42:09Z</time></trkpt><trkpt lat="46.0237431335822" lon="11.45385704567105"><ele>622.4285714285714</ele><time>2026-05-04T14:42:21.001Z</time></trkpt><trkpt lat="46.02369922082782" lon="11.45376187279267"><ele>622.0</ele><time>2026-05-04T14:42:32Z</time></trkpt><trkpt lat="46.02369527691292" lon="11.453662649314486"><ele>620.0</ele><time>2026-05-04T14:42:39Z</time></trkpt><trkpt lat="46.02369659895356" lon="11.453556493830849"><ele>618.0</ele><time>2026-05-04T14:42:47Z</time></trkpt><trkpt lat="46.02367685390514" lon="11.453465362149464"><ele>616.0</ele><time>2026-05-04T14:42:52Z</time></trkpt><trkpt lat="46.023651629136914" lon="11.45336990171242"><ele>614.0</ele><time>2026-05-04T14:43:00Z</time></trkpt><trkpt lat="46.02362546060613" lon="11.45326926189714"><ele>612.0</ele><time>2026-05-04T14:43:08Z</time></trkpt><trkpt lat="46.02367115758681" lon="11.453201905812787"><ele>610.0</ele><time>2026-05-04T14:43:19Z</time></trkpt><trkpt lat="46.023718387707916" lon="11.453136099355902"><ele>608.0</ele><time>2026-05-04T14:43:27Z</time></trkpt><trkpt lat="46.02374338918243" lon="11.453008690749503"><ele>608.0</ele><time>2026-05-04T14:44:42Z</time></trkpt><trkpt lat="46.023745893278516" lon="11.453100633038202"><ele>608.0</ele><time>2026-05-04T14:45:06Z</time></trkpt><trkpt lat="46.02368379988755" lon="11.45311717709769"><ele>608.0</ele><time>2026-05-04T14:45:24Z</time></trkpt><trkpt lat="46.023623829784995" lon="11.453145129861797"><ele>608.0</ele><time>2026-05-04T14:45:31Z</time></trkpt><trkpt lat="46.02359380188026" lon="11.453227194160624"><ele>608.0</ele><time>2026-05-04T14:47:50Z</time></trkpt><trkpt lat="46.02355884482425" lon="11.453148172649568"><ele>608.0</ele><time>2026-05-04T14:49:04Z</time></trkpt><trkpt lat="46.02352051046183" lon="11.453067713325812"><ele>608.0</ele><time>2026-05-04T14:49:13Z</time></trkpt><trkpt lat="46.02347739446481" lon="11.452994793839023"><ele>607.8571428571428</ele><time>2026-05-04T14:49:23Z</time></trkpt><trkpt lat="46.02345512720114" lon="11.45288824769541"><ele>607.7142857142858</ele><time>2026-05-04T14:49:46Z</time></trkpt><trkpt lat="46.02338229246002" lon="11.452814006730645"><ele>607.5714285714286</ele><time>2026-05-04T14:49:57Z</time></trkpt><trkpt lat="46.02335940203249" lon="11.452716222280468"><ele>607.4285714285713</ele><time>2026-05-04T14:50:13Z</time></trkpt><trkpt lat="46.02331697266078" lon="11.452638568342639"><ele>607.2857142857142</ele><time>2026-05-04T14:50:20Z</time></trkpt><trkpt lat="46.02328460465059" lon="11.452558224380155"><ele>607.1428571428571</ele><time>2026-05-04T14:50:27Z</time></trkpt><trkpt lat="46.02330512390425" lon="11.45246124676758"><ele>607.0</ele><time>2026-05-04T14:50:34Z</time></trkpt><trkpt lat="46.0233265416458" lon="11.452372707259276"><ele>609.5714285714286</ele><time>2026-05-04T14:50:41Z</time></trkpt><trkpt lat="46.02330011440473" lon="11.452287805089256"><ele>612.1428571428571</ele><time>2026-05-04T14:50:48Z</time></trkpt><trkpt lat="46.02322608428518" lon="11.452181360673324"><ele>614.7142857142858</ele><time>2026-05-04T14:51:06Z</time></trkpt><trkpt lat="46.023275340516435" lon="11.452119200481745"><ele>617.2857142857142</ele><time>2026-05-04T14:51:29Z</time></trkpt><trkpt lat="46.02328462615572" lon="11.452020470925026"><ele>619.8571428571429</ele><time>2026-05-04T14:51:38Z</time></trkpt><trkpt lat="46.02330073878546" lon="11.451931772219151"><ele>622.4285714285714</ele><time>2026-05-04T14:51:44Z</time></trkpt><trkpt lat="46.02331128839815" lon="11.451835416288757"><ele>625.0</ele><time>2026-05-04T14:51:50Z</time></trkpt><trkpt lat="46.02326229615431" lon="11.451735173161467"><ele>626.0</ele><time>2026-05-04T14:51:58Z</time></trkpt><trkpt lat="46.023220818150605" lon="11.451636119738362"><ele>627.0</ele><time>2026-05-04T14:52:02Z</time></trkpt><trkpt lat="46.023190367115426" lon="11.451537461809988"><ele>628.0</ele><time>2026-05-04T14:52:12Z</time></trkpt><trkpt lat="46.02314187783311" lon="11.451451954579579"><ele>629.0</ele><time>2026-05-04T14:52:19Z</time></trkpt><trkpt lat="46.02306809298878" lon="11.451393717426768"><ele>630.0</ele><time>2026-05-04T14:52:25Z</time></trkpt><trkpt lat="46.02302199474894" lon="11.45132868974023"><ele>631.0</ele><time>2026-05-04T14:52:33Z</time></trkpt><trkpt lat="46.022949594030464" lon="11.451279405911341"><ele>631.1428571428572</ele><time>2026-05-04T14:52:41Z</time></trkpt><trkpt lat="46.022907376425124" lon="11.451196764753197"><ele>631.2857142857142</ele><time>2026-05-04T14:52:45Z</time></trkpt><trkpt lat="46.022845305655906" lon="11.451170374858311"><ele>631.4285714285714</ele><time>2026-05-04T14:52:51Z</time></trkpt><trkpt lat="46.02277418643331" lon="11.451128070652965"><ele>631.5714285714287</ele><time>2026-05-04T14:53:05Z</time></trkpt><trkpt lat="46.02283042594405" lon="11.451080017744982"><ele>631.7142857142858</ele><time>2026-05-04T14:53:12Z</time></trkpt><trkpt lat="46.02276630463899" lon="11.451087140373305"><ele>631.8571428571429</ele><time>2026-05-04T14:53:21Z</time></trkpt><trkpt lat="46.02269419318017" lon="11.451078284007396"><ele>632.0</ele><time>2026-05-04T14:53:48Z</time></trkpt><trkpt lat="46.02260832408317" lon="11.45100128675319"><ele>632.0000000000001</ele><time>2026-05-04T14:53:58Z</time></trkpt><trkpt lat="46.02260610647466" lon="11.450909082198319"><ele>632.0</ele><time>2026-05-04T14:54:56Z</time></trkpt><trkpt lat="46.022559652104626" lon="11.450845873690962"><ele>632.0</ele><time>2026-05-04T14:55:01Z</time></trkpt><trkpt lat="46.02251359050906" lon="11.450778756734502"><ele>632.0</ele><time>2026-05-04T14:55:08Z</time></trkpt><trkpt lat="46.02246712816978" lon="11.450671213689857"><ele>632.0</ele><time>2026-05-04T14:55:20Z</time></trkpt><trkpt lat="46.02243464549727" lon="11.450592120599534"><ele>632.0000000000001</ele><time>2026-05-04T14:55:29Z</time></trkpt><trkpt lat="46.02240475107314" lon="11.450494678431323"><ele>632.0</ele><time>2026-05-04T14:55:37Z</time></trkpt><trkpt lat="46.02236489981831" lon="11.450409188376412"><ele>634.5714285714287</ele><time>2026-05-04T14:55:44Z</time></trkpt><trkpt lat="46.02231559106897" lon="11.45033932860349"><ele>637.1428571428571</ele><time>2026-05-04T14:55:51Z</time></trkpt><trkpt lat="46.022244200673995" lon="11.450331492505237"><ele>639.7142857142858</ele><time>2026-05-04T14:56:09Z</time></trkpt><trkpt lat="46.0222540643032" lon="11.450241604969062"><ele>642.2857142857143</ele><time>2026-05-04T14:56:15Z</time></trkpt><trkpt lat="46.02221124772764" lon="11.450129844239514"><ele>644.8571428571429</ele><time>2026-05-04T14:56:29Z</time></trkpt><trkpt lat="46.0222836044903" lon="11.450130832073766"><ele>647.4285714285714</ele><time>2026-05-04T14:57:08Z</time></trkpt><trkpt lat="46.02229582382564" lon="11.450233304666703"><ele>650.0</ele><time>2026-05-04T14:57:14Z</time></trkpt><trkpt lat="46.02234947902656" lon="11.450283437643579"><ele>650.0</ele><time>2026-05-04T14:57:22Z</time></trkpt><trkpt lat="46.022406910340244" lon="11.450369313665343"><ele>650.0</ele><time>2026-05-04T14:57:31Z</time></trkpt><trkpt lat="46.0224013136916" lon="11.450462258711969"><ele>650.0</ele><time>2026-05-04T14:57:38Z</time></trkpt><trkpt lat="46.02242940707323" lon="11.45059461380802"><ele>650.0</ele><time>2026-05-04T14:57:47Z</time></trkpt><trkpt lat="46.022422356886224" lon="11.450702342072343"><ele>650.0</ele><time>2026-05-04T14:58:00Z</time></trkpt><trkpt lat="46.022504665390855" lon="11.45074167265096"><ele>650.0</ele><time>2026-05-04T14:58:01Z</time></trkpt><trkpt lat="46.02252914141133" lon="11.45085944111367"><ele>646.4</ele><time>2026-05-04T14:58:09Z</time></trkpt><trkpt lat="46.02256314658314" lon="11.451056946994449"><ele>642.8</ele><time>2026-05-04T14:58:25Z</time></trkpt><trkpt lat="46.02269143747337" lon="11.451109926155317"><ele>639.2</ele><time>2026-05-04T14:58:39Z</time></trkpt><trkpt lat="46.022774083151596" lon="11.451141512337566"><ele>635.6</ele><time>2026-05-04T14:58:46Z</time></trkpt><trkpt lat="46.02283846361102" lon="11.45111928408949"><ele>632.0</ele><time>2026-05-04T14:58:54Z</time></trkpt><trkpt lat="46.02287415860511" lon="11.45120760157991"><ele>632.0</ele><time>2026-05-04T14:59:41Z</time></trkpt><trkpt lat="46.0229562590469" lon="11.451166346637265"><ele>632.0</ele><time>2026-05-04T14:59:52Z</time></trkpt><trkpt lat="46.023006646222996" lon="11.451223384796656"><ele>632.0</ele><time>2026-05-04T15:00:00Z</time></trkpt><trkpt lat="46.023072735225455" lon="11.451223342225523"><ele>632.0</ele><time>2026-05-04T15:00:05Z</time></trkpt><trkpt lat="46.023052172045645" lon="11.4513259936159"><ele>632.0</ele><time>2026-05-04T15:00:08Z</time></trkpt><trkpt lat="46.023074388004666" lon="11.451432291940051"><ele>632.0</ele><time>2026-05-04T15:00:15Z</time></trkpt><trkpt lat="46.023110510501986" lon="11.451312684405996"><ele>631.8333333333333</ele><time>2026-05-04T15:00:21Z</time></trkpt><trkpt lat="46.02312262391769" lon="11.4514024387828"><ele>631.6666666666666</ele><time>2026-05-04T15:00:23Z</time></trkpt><trkpt lat="46.02318410409478" lon="11.451440053273224"><ele>631.5</ele><time>2026-05-04T15:00:27Z</time></trkpt><trkpt lat="46.02325670839092" lon="11.451537101622073"><ele>631.3333333333334</ele><time>2026-05-04T15:00:34Z</time></trkpt><trkpt lat="46.02330600825551" lon="11.451602267316755"><ele>631.1666666666667</ele><time>2026-05-04T15:00:39Z</time></trkpt><trkpt lat="46.02326411609258" lon="11.451731678854262"><ele>631.0</ele><time>2026-05-04T15:00:45Z</time></trkpt><trkpt lat="46.02326931992534" lon="11.451828537739202"><ele>631.0</ele><time>2026-05-04T15:00:57.999Z</time></trkpt><trkpt lat="46.02330425071328" lon="11.451947775084303"><ele>631.0</ele><time>2026-05-04T15:01:05.999Z</time></trkpt><trkpt lat="46.023288198295774" lon="11.452036568752659"><ele>631.0</ele><time>2026-05-04T15:01:14Z</time></trkpt><trkpt lat="46.023288770184465" lon="11.452151206252616"><ele>631.0</ele><time>2026-05-04T15:01:27Z</time></trkpt><trkpt lat="46.02325215274277" lon="11.452259188725137"><ele>631.0</ele><time>2026-05-04T15:01:43Z</time></trkpt><trkpt lat="46.023295970886466" lon="11.452326585116545"><ele>631.0</ele><time>2026-05-04T15:01:50Z</time></trkpt><trkpt lat="46.023318702932556" lon="11.452413927438181"><ele>631.0</ele><time>2026-05-04T15:01:57Z</time></trkpt><trkpt lat="46.02328523007883" lon="11.452506079042104"><ele>630.1428571428572</ele><time>2026-05-04T15:02:06Z</time></trkpt><trkpt lat="46.02327367067616" lon="11.452612738867304"><ele>629.2857142857142</ele><time>2026-05-04T15:02:13Z</time></trkpt><trkpt lat="46.02331398966495" lon="11.452688977528302"><ele>628.4285714285714</ele><time>2026-05-04T15:02:21Z</time></trkpt><trkpt lat="46.02335791136193" lon="11.452761367418429"><ele>627.5714285714287</ele><time>2026-05-04T15:02:54.999Z</time></trkpt><trkpt lat="46.02340622448133" lon="11.452828193295398"><ele>626.7142857142858</ele><time>2026-05-04T15:03:03.999Z</time></trkpt><trkpt lat="46.02345144256936" lon="11.452894351693667"><ele>625.8571428571429</ele><time>2026-05-04T15:03:10.999Z</time></trkpt><trkpt lat="46.023493712992575" lon="11.452972834644953"><ele>625.0</ele><time>2026-05-04T15:03:21Z</time></trkpt><trkpt lat="46.02352832910758" lon="11.453058711720255"><ele>622.5714285714287</ele><time>2026-05-04T15:03:34Z</time></trkpt><trkpt lat="46.023567848010394" lon="11.453135674089697"><ele>620.1428571428571</ele><time>2026-05-04T15:03:41Z</time></trkpt><trkpt lat="46.02364351846279" lon="11.453150667408849"><ele>617.7142857142858</ele><time>2026-05-04T15:04:03Z</time></trkpt><trkpt lat="46.02369823442304" lon="11.453081976038066"><ele>615.2857142857143</ele><time>2026-05-04T15:04:54.999Z</time></trkpt><trkpt lat="46.02371795106319" lon="11.453196989581569"><ele>612.8571428571429</ele><time>2026-05-04T15:04:59.999Z</time></trkpt><trkpt lat="46.0237310607602" lon="11.453105624280266"><ele>610.4285714285714</ele><time>2026-05-04T15:05:04.999Z</time></trkpt><trkpt lat="46.02370366843324" lon="11.452987542729637"><ele>608.0</ele><time>2026-05-04T15:05:17.999Z</time></trkpt><trkpt lat="46.023711304741994" lon="11.45289525023466"><ele>608.0</ele><time>2026-05-04T15:05:35Z</time></trkpt><trkpt lat="46.0237752863186" lon="11.452835431644521"><ele>608.0</ele><time>2026-05-04T15:06:08Z</time></trkpt><trkpt lat="46.02384285496883" lon="11.452875748302107"><ele>608.0</ele><time>2026-05-04T15:06:19Z</time></trkpt><trkpt lat="46.02391086589761" lon="11.452902259344668"><ele>608.0</ele><time>2026-05-04T15:06:27Z</time></trkpt><trkpt lat="46.02400272879664" lon="11.45295913486599"><ele>608.0</ele><time>2026-05-04T15:06:35Z</time></trkpt><trkpt lat="46.024060790329095" lon="11.452997250953684"><ele>608.0</ele><time>2026-05-04T15:06:47.999Z</time></trkpt><trkpt lat="46.02412193072991" lon="11.452955996171395"><ele>608.4285714285714</ele><time>2026-05-04T15:06:54.999Z</time></trkpt><trkpt lat="46.02418909359739" lon="11.452971893082372"><ele>608.8571428571429</ele><time>2026-05-04T15:07:01.999Z</time></trkpt><trkpt lat="46.02426434408968" lon="11.453003105410428"><ele>609.2857142857143</ele><time>2026-05-04T15:07:10.999Z</time></trkpt><trkpt lat="46.02433199423082" lon="11.453021639630045"><ele>609.7142857142858</ele><time>2026-05-04T15:07:19.999Z</time></trkpt><trkpt lat="46.024404663935485" lon="11.452997782051902"><ele>610.1428571428571</ele><time>2026-05-04T15:07:27Z</time></trkpt><trkpt lat="46.0244661676914" lon="11.452974169634967"><ele>610.5714285714287</ele><time>2026-05-04T15:07:32Z</time></trkpt><trkpt lat="46.024528774741555" lon="11.452952200083553"><ele>611.0</ele><time>2026-05-04T15:07:39Z</time></trkpt><trkpt lat="46.024579765509486" lon="11.452894841410725"><ele>611.0000000000001</ele><time>2026-05-04T15:07:47Z</time></trkpt><trkpt lat="46.02464203420038" lon="11.452875151680267"><ele>611.0</ele><time>2026-05-04T15:07:59Z</time></trkpt><trkpt lat="46.024713445670315" lon="11.4528565560858"><ele>611.0</ele><time>2026-05-04T15:08:07Z</time></trkpt><trkpt lat="46.02478425320642" lon="11.452863438180543"><ele>611.0</ele><time>2026-05-04T15:08:14Z</time></trkpt><trkpt lat="46.024853991850804" lon="11.452864561493024"><ele>611.0</ele><time>2026-05-04T15:08:23Z</time></trkpt><trkpt lat="46.02491807907095" lon="11.452884291205367"><ele>611.0000000000001</ele><time>2026-05-04T15:08:33Z</time></trkpt><trkpt lat="46.02497270826075" lon="11.452961245159882"><ele>611.0</ele><time>2026-05-04T15:08:44Z</time></trkpt><trkpt lat="46.02502272435656" lon="11.453024206789088"><ele>608.7142857142858</ele><time>2026-05-04T15:08:52Z</time></trkpt><trkpt lat="46.02504984816319" lon="11.453108449783684"><ele>606.4285714285714</ele><time>2026-05-04T15:09:00.999Z</time></trkpt><trkpt lat="46.02510472349008" lon="11.453160417098797"><ele>604.1428571428571</ele><time>2026-05-04T15:09:11.999Z</time></trkpt><trkpt lat="46.02517392953349" lon="11.453267968697615"><ele>601.8571428571429</ele><time>2026-05-04T15:09:30.999Z</time></trkpt><trkpt lat="46.02523212000078" lon="11.453311304866554"><ele>599.5714285714286</ele><time>2026-05-04T15:09:40Z</time></trkpt><trkpt lat="46.02529673627837" lon="11.453352466589724"><ele>597.2857142857143</ele><time>2026-05-04T15:09:48Z</time></trkpt><trkpt lat="46.025361878710754" lon="11.453387388326316"><ele>595.0</ele><time>2026-05-04T15:09:56Z</time></trkpt><trkpt lat="46.02542770864603" lon="11.453428321826545"><ele>595.0</ele><time>2026-05-04T15:10:02Z</time></trkpt><trkpt lat="46.02549144456631" lon="11.45347872305899"><ele>595.0</ele><time>2026-05-04T15:10:07Z</time></trkpt><trkpt lat="46.02555611826804" lon="11.453535772245091"><ele>595.0</ele><time>2026-05-04T15:10:14Z</time></trkpt><trkpt lat="46.0255680246514" lon="11.45365849796626"><ele>595.0</ele><time>2026-05-04T15:10:25Z</time></trkpt><trkpt lat="46.02562309912438" lon="11.453608454282413"><ele>595.0</ele><time>2026-05-04T15:10:26Z</time></trkpt><trkpt lat="46.02567761969456" lon="11.4536643801495"><ele>595.0</ele><time>2026-05-04T15:10:34Z</time></trkpt><trkpt lat="46.025738447294536" lon="11.453721189023529"><ele>595.0</ele><time>2026-05-04T15:10:43Z</time></trkpt><trkpt lat="46.02578371431036" lon="11.453842320382153"><ele>592.7142857142857</ele><time>2026-05-04T15:10:48Z</time></trkpt><trkpt lat="46.025845921487466" lon="11.453892792741504"><ele>590.4285714285714</ele><time>2026-05-04T15:10:57.999Z</time></trkpt><trkpt lat="46.02588299496761" lon="11.453969875734554"><ele>588.1428571428571</ele><time>2026-05-04T15:11:03.999Z</time></trkpt><trkpt lat="46.025900108589866" lon="11.454063131717186"><ele>585.8571428571429</ele><time>2026-05-04T15:11:11.999Z</time></trkpt><trkpt lat="46.025897136195795" lon="11.454158408326055"><ele>583.5714285714286</ele><time>2026-05-04T15:11:18.999Z</time></trkpt><trkpt lat="46.02590395930399" lon="11.454255753315802"><ele>581.2857142857142</ele><time>2026-05-04T15:11:25.999Z</time></trkpt><trkpt lat="46.02596065873196" lon="11.45430337971317"><ele>579.0</ele><time>2026-05-04T15:11:31.999Z</time></trkpt><trkpt lat="46.02599928584874" lon="11.454400594774995"><ele>578.9999999999999</ele><time>2026-05-04T15:11:40Z</time></trkpt><trkpt lat="46.0260611153125" lon="11.454463796169724"><ele>579.0</ele><time>2026-05-04T15:11:45Z</time></trkpt><trkpt lat="46.026113228987455" lon="11.454515615622087"><ele>579.0</ele><time>2026-05-04T15:11:51Z</time></trkpt><trkpt lat="46.02617358887693" lon="11.454552182606056"><ele>579.0</ele><time>2026-05-04T15:11:57Z</time></trkpt><trkpt lat="46.02623484300772" lon="11.45457583585182"><ele>579.0</ele><time>2026-05-04T15:12:03Z</time></trkpt><trkpt lat="46.02630732386285" lon="11.45461180525385"><ele>578.9999999999999</ele><time>2026-05-04T15:12:08Z</time></trkpt><trkpt lat="46.026390501823684" lon="11.454630913446897"><ele>579.0</ele><time>2026-05-04T15:12:14Z</time></trkpt><trkpt lat="46.02646410290884" lon="11.454659162447744"><ele>579.4285714285713</ele><time>2026-05-04T15:12:23Z</time></trkpt><trkpt lat="46.02652687533797" lon="11.454689582081745"><ele>579.8571428571429</ele><time>2026-05-04T15:12:28Z</time></trkpt><trkpt lat="46.02660404693954" lon="11.454689833926325"><ele>580.2857142857142</ele><time>2026-05-04T15:12:34Z</time></trkpt><trkpt lat="46.02666671056188" lon="11.454666110665265"><ele>580.7142857142857</ele><time>2026-05-04T15:12:38Z</time></trkpt><trkpt lat="46.026734573205445" lon="11.4546465229889"><ele>581.1428571428571</ele><time>2026-05-04T15:12:44Z</time></trkpt><trkpt lat="46.026775749595664" lon="11.45454770396247"><ele>581.5714285714286</ele><time>2026-05-04T15:12:51Z</time></trkpt><trkpt lat="46.02680684807255" lon="11.454455507050039"><ele>582.0</ele><time>2026-05-04T15:12:56.999Z</time></trkpt><trkpt lat="46.02685487704534" lon="11.45438136969126"><ele>582.1428571428571</ele><time>2026-05-04T15:13:02.999Z</time></trkpt><trkpt lat="46.02689173711933" lon="11.454292054958858"><ele>582.2857142857142</ele><time>2026-05-04T15:13:08.999Z</time></trkpt><trkpt lat="46.02694463387811" lon="11.454221117094457"><ele>582.4285714285714</ele><time>2026-05-04T15:13:15.999Z</time></trkpt><trkpt lat="46.02701424964103" lon="11.454239724120878"><ele>582.5714285714286</ele><time>2026-05-04T15:13:20.999Z</time></trkpt><trkpt lat="46.02706483743651" lon="11.454302920060705"><ele>582.7142857142858</ele><time>2026-05-04T15:13:27.999Z</time></trkpt><trkpt lat="46.02708731732773" lon="11.454388394797807"><ele>582.8571428571429</ele><time>2026-05-04T15:13:33.999Z</time></trkpt><trkpt lat="46.02708179608692" lon="11.454486732628578"><ele>583.0</ele><time>2026-05-04T15:13:41.999Z</time></trkpt><trkpt lat="46.0271041090422" lon="11.45457440732649"><ele>581.2857142857143</ele><time>2026-05-04T15:13:48Z</time></trkpt><trkpt lat="46.02713470968678" lon="11.454661459513536"><ele>579.5714285714286</ele><time>2026-05-04T15:13:55Z</time></trkpt><trkpt lat="46.0271694009274" lon="11.454743448381652"><ele>577.8571428571429</ele><time>2026-05-04T15:14:02Z</time></trkpt><trkpt lat="46.02712556086554" lon="11.454835061741283"><ele>576.1428571428571</ele><time>2026-05-04T15:14:07Z</time></trkpt><trkpt lat="46.02718003618844" lon="11.454897631451813"><ele>574.4285714285714</ele><time>2026-05-04T15:14:13Z</time></trkpt><trkpt lat="46.02724065927677" lon="11.454941726157106"><ele>572.7142857142858</ele><time>2026-05-04T15:14:20Z</time></trkpt><trkpt lat="46.027283054734404" lon="11.45502500704461"><ele>571.0</ele><time>2026-05-04T15:14:27Z</time></trkpt><trkpt lat="46.02733310461096" lon="11.455085003186351"><ele>571.0</ele><time>2026-05-04T15:14:34Z</time></trkpt><trkpt lat="46.027383309675415" lon="11.455148263086054"><ele>571.0</ele><time>2026-05-04T15:14:40Z</time></trkpt><trkpt lat="46.0274298683943" lon="11.455214857544302"><ele>571.0</ele><time>2026-05-04T15:14:47Z</time></trkpt><trkpt lat="46.02750050272097" lon="11.455247437402823"><ele>571.0</ele><time>2026-05-04T15:14:51.999Z</time></trkpt><trkpt lat="46.027561486673164" lon="11.455318489706494"><ele>571.0</ele><time>2026-05-04T15:14:57.999Z</time></trkpt><trkpt lat="46.027630407963926" lon="11.455376485228419"><ele>571.0</ele><time>2026-05-04T15:15:04.999Z</time></trkpt><trkpt lat="46.02768763104341" lon="11.455418006423608"><ele>571.0</ele><time>2026-05-04T15:15:09.999Z</time></trkpt><trkpt lat="46.027731125290565" lon="11.455506548047738"><ele>569.5714285714286</ele><time>2026-05-04T15:15:16.999Z</time></trkpt><trkpt lat="46.027797856441474" lon="11.455541653248932"><ele>568.1428571428571</ele><time>2026-05-04T15:15:21.999Z</time></trkpt><trkpt lat="46.02785073310632" lon="11.455592295497285"><ele>566.7142857142857</ele><time>2026-05-04T15:15:26.999Z</time></trkpt><trkpt lat="46.02791739617397" lon="11.455613663207314"><ele>565.2857142857142</ele><time>2026-05-04T15:15:32.999Z</time></trkpt><trkpt lat="46.027980168944396" lon="11.455654359811383"><ele>563.8571428571428</ele><time>2026-05-04T15:15:38.999Z</time></trkpt><trkpt lat="46.02804313166863" lon="11.45566133898798"><ele>562.4285714285714</ele><time>2026-05-04T15:15:45.999Z</time></trkpt><trkpt lat="46.028108635332345" lon="11.455667210949166"><ele>561.0</ele><time>2026-05-04T15:15:52Z</time></trkpt><trkpt lat="46.02817417983386" lon="11.455682680621075"><ele>561.0</ele><time>2026-05-04T15:15:58Z</time></trkpt><trkpt lat="46.02823529938453" lon="11.455709247725247"><ele>561.0</ele><time>2026-05-04T15:16:03Z</time></trkpt><trkpt lat="46.02829185215548" lon="11.455753225668275"><ele>561.0</ele><time>2026-05-04T15:16:09Z</time></trkpt><trkpt lat="46.028353292067166" lon="11.45579845494835"><ele>561.0</ele><time>2026-05-04T15:16:16Z</time></trkpt><trkpt lat="46.02841104502106" lon="11.455837330091024"><ele>561.0</ele><time>2026-05-04T15:16:22Z</time></trkpt><trkpt lat="46.028485205270066" lon="11.455851230373746"><ele>561.0</ele><time>2026-05-04T15:16:29Z</time></trkpt><trkpt lat="46.02856227005269" lon="11.455844423313108"><ele>561.0</ele><time>2026-05-04T15:16:36Z</time></trkpt><trkpt lat="46.0286326079952" lon="11.455844051136832"><ele>559.4285714285714</ele><time>2026-05-04T15:16:42Z</time></trkpt><trkpt lat="46.028696891567094" lon="11.45587096440598"><ele>557.8571428571428</ele><time>2026-05-04T15:16:46Z</time></trkpt><trkpt lat="46.028758717766046" lon="11.455891123324358"><ele>556.2857142857142</ele><time>2026-05-04T15:16:51Z</time></trkpt><trkpt lat="46.028821520080406" lon="11.455901870694921"><ele>554.7142857142857</ele><time>2026-05-04T15:16:57Z</time></trkpt><trkpt lat="46.02889154188693" lon="11.455897996481731"><ele>553.1428571428571</ele><time>2026-05-04T15:17:02.999Z</time></trkpt><trkpt lat="46.02895556442082" lon="11.455895846239974"><ele>551.5714285714286</ele><time>2026-05-04T15:17:07.999Z</time></trkpt><trkpt lat="46.029030588723124" lon="11.455918974340895"><ele>550.0</ele><time>2026-05-04T15:17:14.999Z</time></trkpt><trkpt lat="46.02909678950717" lon="11.455916110293252"><ele>548.5714285714286</ele><time>2026-05-04T15:17:20.999Z</time></trkpt><trkpt lat="46.02915952827293" lon="11.455905432372514"><ele>547.1428571428571</ele><time>2026-05-04T15:17:26.999Z</time></trkpt><trkpt lat="46.02922324257383" lon="11.455908498834123"><ele>545.7142857142857</ele><time>2026-05-04T15:17:33.999Z</time></trkpt><trkpt lat="46.02929006533267" lon="11.455907818637085"><ele>544.2857142857142</ele><time>2026-05-04T15:17:39.999Z</time></trkpt><trkpt lat="46.02936359899049" lon="11.455904031950864"><ele>542.8571428571428</ele><time>2026-05-04T15:17:46.999Z</time></trkpt><trkpt lat="46.029427454501985" lon="11.455888385670415"><ele>541.4285714285714</ele><time>2026-05-04T15:17:51.999Z</time></trkpt><trkpt lat="46.02949115169155" lon="11.455865523635593"><ele>540.0</ele><time>2026-05-04T15:17:58Z</time></trkpt><trkpt lat="46.02955391444067" lon="11.455883765679118"><ele>540.0</ele><time>2026-05-04T15:18:03Z</time></trkpt><trkpt lat="46.029626804291944" lon="11.455882665197375"><ele>540.0</ele><time>2026-05-04T15:18:09Z</time></trkpt><trkpt lat="46.02969258289214" lon="11.45589997204112"><ele>540.0</ele><time>2026-05-04T15:18:14Z</time></trkpt><trkpt lat="46.02976705140741" lon="11.455908207761537"><ele>540.0</ele><time>2026-05-04T15:18:20Z</time></trkpt><trkpt lat="46.029840790037916" lon="11.455911706812369"><ele>540.0</ele><time>2026-05-04T15:18:26Z</time></trkpt><trkpt lat="46.02991567313208" lon="11.455923622709777"><ele>540.0</ele><time>2026-05-04T15:18:33Z</time></trkpt><trkpt lat="46.029982881819" lon="11.455920554288904"><ele>540.0</ele><time>2026-05-04T15:18:38Z</time></trkpt><trkpt lat="46.03005270162923" lon="11.455925115402318"><ele>538.8571428571429</ele><time>2026-05-04T15:18:44Z</time></trkpt><trkpt lat="46.03012244773534" lon="11.455912092126205"><ele>537.7142857142857</ele><time>2026-05-04T15:18:50Z</time></trkpt><trkpt lat="46.03018826475717" lon="11.45594853180072"><ele>536.5714285714286</ele><time>2026-05-04T15:18:56Z</time></trkpt><trkpt lat="46.030248288452086" lon="11.455920718007382"><ele>535.4285714285714</ele><time>2026-05-04T15:19:01Z</time></trkpt><trkpt lat="46.03031209684272" lon="11.455928639930793"><ele>534.2857142857142</ele><time>2026-05-04T15:19:06Z</time></trkpt><trkpt lat="46.030389831384284" lon="11.455965728691352"><ele>533.1428571428571</ele><time>2026-05-04T15:19:11.999Z</time></trkpt><trkpt lat="46.03046004060515" lon="11.455946042726485"><ele>532.0</ele><time>2026-05-04T15:19:17.999Z</time></trkpt><trkpt lat="46.03052456763139" lon="11.455922388288565"><ele>532.0</ele><time>2026-05-04T15:19:22.999Z</time></trkpt><trkpt lat="46.03059027750745" lon="11.455943936259125"><ele>532.0</ele><time>2026-05-04T15:19:28.999Z</time></trkpt><trkpt lat="46.03066417816276" lon="11.455926654095377"><ele>532.0</ele><time>2026-05-04T15:19:33.999Z</time></trkpt><trkpt lat="46.03073485154784" lon="11.45591338106774"><ele>532.0</ele><time>2026-05-04T15:19:38.999Z</time></trkpt><trkpt lat="46.030792275257554" lon="11.455862942781199"><ele>532.0</ele><time>2026-05-04T15:19:44.999Z</time></trkpt><trkpt lat="46.03086951516564" lon="11.455901496590966"><ele>532.0</ele><time>2026-05-04T15:19:48.999Z</time></trkpt><trkpt lat="46.03092028554243" lon="11.455844222713504"><ele>532.0</ele><time>2026-05-04T15:19:54.999Z</time></trkpt><trkpt lat="46.030974363078386" lon="11.455897200209566"><ele>531.0</ele><time>2026-05-04T15:19:58.999Z</time></trkpt><trkpt lat="46.031060903016616" lon="11.455893032253464"><ele>530.0</ele><time>2026-05-04T15:20:04Z</time></trkpt><trkpt lat="46.03111370352484" lon="11.455838479740294"><ele>529.0</ele><time>2026-05-04T15:20:10Z</time></trkpt><trkpt lat="46.031177918021854" lon="11.455832732715722"><ele>528.0</ele><time>2026-05-04T15:20:26Z</time></trkpt><trkpt lat="46.031240531544164" lon="11.455816703419842"><ele>527.0</ele><time>2026-05-04T15:20:35Z</time></trkpt><trkpt lat="46.03130693588668" lon="11.45578037469148"><ele>526.0</ele><time>2026-05-04T15:20:42Z</time></trkpt><trkpt lat="46.031379101796745" lon="11.45575979250229"><ele>525.0</ele><time>2026-05-04T15:20:48Z</time></trkpt><trkpt lat="46.03144032404776" lon="11.455737550994753"><ele>525.0</ele><time>2026-05-04T15:20:52Z</time></trkpt><trkpt lat="46.03150400164467" lon="11.455749652334953"><ele>525.0</ele><time>2026-05-04T15:20:58Z</time></trkpt><trkpt lat="46.03157863745816" lon="11.455736682935328"><ele>525.0</ele><time>2026-05-04T15:21:04Z</time></trkpt><trkpt lat="46.031653684840805" lon="11.455720212939806"><ele>525.0</ele><time>2026-05-04T15:21:08.999Z</time></trkpt><trkpt lat="46.03171955596263" lon="11.455696832894835"><ele>525.0</ele><time>2026-05-04T15:21:13.999Z</time></trkpt><trkpt lat="46.03179816528564" lon="11.455673946369254"><ele>525.0</ele><time>2026-05-04T15:21:19.999Z</time></trkpt><trkpt lat="46.03186614245042" lon="11.45566769025967"><ele>525.0</ele><time>2026-05-04T15:21:25.999Z</time></trkpt><trkpt lat="46.03191015151319" lon="11.455738581895504"><ele>523.2857142857143</ele><time>2026-05-04T15:21:30.999Z</time></trkpt><trkpt lat="46.03195829543461" lon="11.455679857346592"><ele>521.5714285714286</ele><time>2026-05-04T15:21:34.999Z</time></trkpt><trkpt lat="46.031956464635975" lon="11.455575359649705"><ele>519.8571428571429</ele><time>2026-05-04T15:21:39.999Z</time></trkpt><trkpt lat="46.0320078931175" lon="11.455661940199432"><ele>518.1428571428571</ele><time>2026-05-04T15:21:43.999Z</time></trkpt><trkpt lat="46.03203612243376" lon="11.455753585951365"><ele>516.4285714285714</ele><time>2026-05-04T15:21:46.999Z</time></trkpt><trkpt lat="46.03211695777197" lon="11.455682273523122"><ele>514.7142857142858</ele><time>2026-05-04T15:21:51.999Z</time></trkpt><trkpt lat="46.03218449825559" lon="11.455682904528159"><ele>513.0</ele><time>2026-05-04T15:21:56.999Z</time></trkpt><trkpt lat="46.03225058540242" lon="11.4556811225477"><ele>513.0000000000001</ele><time>2026-05-04T15:22:02.999Z</time></trkpt><trkpt lat="46.03232806303298" lon="11.455677145478278"><ele>513.0</ele><time>2026-05-04T15:22:08Z</time></trkpt><trkpt lat="46.032397877441696" lon="11.455687847368377"><ele>513.0</ele><time>2026-05-04T15:22:14Z</time></trkpt><trkpt lat="46.03246139281532" lon="11.455723526824316"><ele>513.0</ele><time>2026-05-04T15:22:19Z</time></trkpt><trkpt lat="46.03251926438926" lon="11.45576852460821"><ele>513.0</ele><time>2026-05-04T15:22:24Z</time></trkpt><trkpt lat="46.03258662798939" lon="11.455802634379804"><ele>513.0000000000001</ele><time>2026-05-04T15:22:30Z</time></trkpt><trkpt lat="46.03265300733698" lon="11.455833317153454"><ele>513.0</ele><time>2026-05-04T15:22:36Z</time></trkpt><trkpt lat="46.03271810071639" lon="11.455858799287467"><ele>511.7142857142858</ele><time>2026-05-04T15:22:41Z</time></trkpt><trkpt lat="46.03278048698975" lon="11.455873631482815"><ele>510.42857142857144</ele><time>2026-05-04T15:22:46Z</time></trkpt><trkpt lat="46.03284968290894" lon="11.45590840113933"><ele>509.14285714285717</ele><time>2026-05-04T15:22:52Z</time></trkpt><trkpt lat="46.03291962737676" lon="11.455931702329593"><ele>507.8571428571429</ele><time>2026-05-04T15:22:58Z</time></trkpt><trkpt lat="46.03298659057398" lon="11.455974671884631"><ele>506.57142857142856</ele><time>2026-05-04T15:23:04Z</time></trkpt><trkpt lat="46.033049998196724" lon="11.456013557596245"><ele>505.2857142857143</ele><time>2026-05-04T15:23:09Z</time></trkpt><trkpt lat="46.033116612925305" lon="11.456037191487288"><ele>504.0</ele><time>2026-05-04T15:23:14Z</time></trkpt><trkpt lat="46.03318599303214" lon="11.456051738262056"><ele>504.0</ele><time>2026-05-04T15:23:20Z</time></trkpt><trkpt lat="46.03323970408629" lon="11.456099572570128"><ele>504.0</ele><time>2026-05-04T15:23:25Z</time></trkpt><trkpt lat="46.03330049018397" lon="11.456128836662755"><ele>504.0</ele><time>2026-05-04T15:23:31Z</time></trkpt><trkpt lat="46.03336137602208" lon="11.456166350907425"><ele>504.0</ele><time>2026-05-04T15:23:36Z</time></trkpt><trkpt lat="46.033423570930495" lon="11.45620554250262"><ele>504.0</ele><time>2026-05-04T15:23:40.999Z</time></trkpt><trkpt lat="46.03349231927861" lon="11.456237864501967"><ele>504.0</ele><time>2026-05-04T15:23:46.999Z</time></trkpt><trkpt lat="46.033563768031264" lon="11.456286666587188"><ele>504.0</ele><time>2026-05-04T15:23:52.999Z</time></trkpt><trkpt lat="46.033626358516884" lon="11.45633117748279"><ele>502.42857142857144</ele><time>2026-05-04T15:23:58.999Z</time></trkpt><trkpt lat="46.03369217103352" lon="11.456343747472845"><ele>500.8571428571429</ele><time>2026-05-04T15:24:03.999Z</time></trkpt><trkpt lat="46.0337599292565" lon="11.456356049749974"><ele>499.2857142857143</ele><time>2026-05-04T15:24:07.999Z</time></trkpt><trkpt lat="46.03382655060297" lon="11.456374059879803"><ele>497.7142857142857</ele><time>2026-05-04T15:24:12.999Z</time></trkpt><trkpt lat="46.03388912917681" lon="11.456427468965508"><ele>496.14285714285717</ele><time>2026-05-04T15:24:19Z</time></trkpt><trkpt lat="46.03394722783886" lon="11.456477054716178"><ele>494.57142857142856</ele><time>2026-05-04T15:24:24Z</time></trkpt><trkpt lat="46.034005114311206" lon="11.456525724221011"><ele>493.0</ele><time>2026-05-04T15:24:30Z</time></trkpt><trkpt lat="46.03407056937401" lon="11.45657869771603"><ele>493.0</ele><time>2026-05-04T15:24:36Z</time></trkpt><trkpt lat="46.034132390054474" lon="11.456625246738955"><ele>493.0</ele><time>2026-05-04T15:24:42Z</time></trkpt><trkpt lat="46.034195404832474" lon="11.45667012127236"><ele>493.0</ele><time>2026-05-04T15:24:48Z</time></trkpt><trkpt lat="46.0342257018291" lon="11.456791390290432"><ele>493.0</ele><time>2026-05-04T15:24:53Z</time></trkpt><trkpt lat="46.03428452300011" lon="11.456833015265504"><ele>493.0</ele><time>2026-05-04T15:24:58Z</time></trkpt><trkpt lat="46.0343426184564" lon="11.456887432515327"><ele>493.0</ele><time>2026-05-04T15:25:04Z</time></trkpt><trkpt lat="46.03439715833216" lon="11.456943965148291"><ele>493.0</ele><time>2026-05-04T15:25:09Z</time></trkpt><trkpt lat="46.034460956854836" lon="11.456989309933086"><ele>491.85714285714283</ele><time>2026-05-04T15:25:15Z</time></trkpt><trkpt lat="46.03452077249706" lon="11.457026540204758"><ele>490.7142857142858</ele><time>2026-05-04T15:25:21Z</time></trkpt><trkpt lat="46.03458970006116" lon="11.457051426009247"><ele>489.5714285714286</ele><time>2026-05-04T15:25:37.999Z</time></trkpt><trkpt lat="46.034655775436875" lon="11.45708032312913"><ele>488.42857142857144</ele><time>2026-05-04T15:25:41.999Z</time></trkpt><trkpt lat="46.0347124790212" lon="11.45713093408856"><ele>487.28571428571433</ele><time>2026-05-04T15:25:48.999Z</time></trkpt><trkpt lat="46.03477523825626" lon="11.457160646077273"><ele>486.1428571428572</ele><time>2026-05-04T15:25:52.999Z</time></trkpt><trkpt lat="46.03475395305498" lon="11.457250037622506"><ele>485.00000000000006</ele><time>2026-05-04T15:26:05.999Z</time></trkpt><trkpt lat="46.03468574445335" lon="11.457232688998563"><ele>485.00000000000006</ele><time>2026-05-04T15:26:16.999Z</time></trkpt><trkpt lat="46.034621274824886" lon="11.457212132247127"><ele>485.0</ele><time>2026-05-04T15:26:24Z</time></trkpt><trkpt lat="46.03454991669553" lon="11.45722107721052"><ele>485.00000000000006</ele><time>2026-05-04T15:26:31Z</time></trkpt><trkpt lat="46.03449178420815" lon="11.457275048501794"><ele>485.00000000000006</ele><time>2026-05-04T15:26:37Z</time></trkpt><trkpt lat="46.03441365843573" lon="11.457262169508684"><ele>485.0</ele><time>2026-05-04T15:27:05Z</time></trkpt><trkpt lat="46.03448102673362" lon="11.45724132092922"><ele>485.00000000000006</ele><time>2026-05-04T15:27:34.999Z</time></trkpt><trkpt lat="46.03454669245818" lon="11.457279410549113"><ele>485.00000000000006</ele><time>2026-05-04T15:28:16.999Z</time></trkpt><trkpt lat="46.03459880411292" lon="11.457212994248447"><ele>485.00000000000006</ele><time>2026-05-04T15:28:40Z</time></trkpt><trkpt lat="46.0346735862402" lon="11.457227266610248"><ele>485.0</ele><time>2026-05-04T15:28:59Z</time></trkpt><trkpt lat="46.0347419027229" lon="11.457235071691523"><ele>485.00000000000006</ele><time>2026-05-04T15:29:04Z</time></trkpt><trkpt lat="46.03480970425493" lon="11.457253782082132"><ele>485.00000000000006</ele><time>2026-05-04T15:29:07Z</time></trkpt><trkpt lat="46.03487854264275" lon="11.457269601338155"><ele>485.0</ele><time>2026-05-04T15:29:17Z</time></trkpt><trkpt lat="46.03494256507147" lon="11.457303696813366"><ele>485.00000000000006</ele><time>2026-05-04T15:29:23Z</time></trkpt><trkpt lat="46.03501306472406" lon="11.457329042412672"><ele>485.00000000000006</ele><time>2026-05-04T15:29:28.999Z</time></trkpt><trkpt lat="46.03508798604298" lon="11.457359864165348"><ele>483.8571428571429</ele><time>2026-05-04T15:29:33.999Z</time></trkpt><trkpt lat="46.03515067868096" lon="11.457406450508628"><ele>482.7142857142857</ele><time>2026-05-04T15:29:38.999Z</time></trkpt><trkpt lat="46.03522333721459" lon="11.457423569269148"><ele>481.57142857142856</ele><time>2026-05-04T15:29:44.999Z</time></trkpt><trkpt lat="46.03529689350406" lon="11.457443292448204"><ele>480.42857142857144</ele><time>2026-05-04T15:29:49.999Z</time></trkpt><trkpt lat="46.035356804244955" lon="11.457506206838474"><ele>479.2857142857142</ele><time>2026-05-04T15:29:56.999Z</time></trkpt><trkpt lat="46.035421008002814" lon="11.457565153329742"><ele>478.1428571428571</ele><time>2026-05-04T15:30:02.999Z</time></trkpt><trkpt lat="46.03548552392992" lon="11.457604233762268"><ele>477.0</ele><time>2026-05-04T15:30:07.999Z</time></trkpt><trkpt lat="46.035550596539174" lon="11.457631383368668"><ele>477.0</ele><time>2026-05-04T15:30:14.999Z</time></trkpt><trkpt lat="46.03562252311579" lon="11.457642184119923"><ele>476.99999999999994</ele><time>2026-05-04T15:30:20.999Z</time></trkpt><trkpt lat="46.03569452246331" lon="11.45769021716918"><ele>477.0</ele><time>2026-05-04T15:30:26.999Z</time></trkpt><trkpt lat="46.03574708813826" lon="11.457757415833443"><ele>477.0</ele><time>2026-05-04T15:30:30.999Z</time></trkpt><trkpt lat="46.03577376281104" lon="11.457843813382713"><ele>476.99999999999994</ele><time>2026-05-04T15:30:34Z</time></trkpt><trkpt lat="46.03583103495031" lon="11.457888452877926"><ele>477.0</ele><time>2026-05-04T15:30:38Z</time></trkpt><trkpt lat="46.03589654386058" lon="11.457926719631434"><ele>477.0</ele><time>2026-05-04T15:30:44Z</time></trkpt><trkpt lat="46.03596045911878" lon="11.457974989550632"><ele>476.0</ele><time>2026-05-04T15:30:49Z</time></trkpt><trkpt lat="46.03601992558231" lon="11.458026097541286"><ele>474.99999999999994</ele><time>2026-05-04T15:30:55Z</time></trkpt><trkpt lat="46.03608835879648" lon="11.4580781478445"><ele>474.0</ele><time>2026-05-04T15:31:01Z</time></trkpt><trkpt lat="46.03616129552688" lon="11.458115972307864"><ele>473.0</ele><time>2026-05-04T15:31:06.999Z</time></trkpt><trkpt lat="46.03621966660647" lon="11.458162537752031"><ele>471.99999999999994</ele><time>2026-05-04T15:31:11.999Z</time></trkpt><trkpt lat="46.036275193044006" lon="11.45821634507252"><ele>471.0</ele><time>2026-05-04T15:31:16.999Z</time></trkpt><trkpt lat="46.03634636075798" lon="11.458275347310948"><ele>470.0</ele><time>2026-05-04T15:31:22.999Z</time></trkpt><trkpt lat="46.036424292535195" lon="11.458307990294418"><ele>470.0</ele><time>2026-05-04T15:31:28.999Z</time></trkpt><trkpt lat="46.036497252669605" lon="11.458335822052119"><ele>469.99999999999994</ele><time>2026-05-04T15:31:34.999Z</time></trkpt><trkpt lat="46.03656482332571" lon="11.458361737346943"><ele>470.0</ele><time>2026-05-04T15:31:40.999Z</time></trkpt><trkpt lat="46.03662866280286" lon="11.458381189310574"><ele>470.0</ele><time>2026-05-04T15:31:45.999Z</time></trkpt><trkpt lat="46.036702269229075" lon="11.458401402877081"><ele>469.99999999999994</ele><time>2026-05-04T15:31:51.999Z</time></trkpt><trkpt lat="46.036767227540736" lon="11.458400916320917"><ele>470.0</ele><time>2026-05-04T15:31:56.999Z</time></trkpt><trkpt lat="46.03683120946213" lon="11.458398796076537"><ele>470.0</ele><time>2026-05-04T15:32:01.999Z</time></trkpt><trkpt lat="46.03689804843251" lon="11.458383330905884"><ele>469.1428571428571</ele><time>2026-05-04T15:32:06.999Z</time></trkpt><trkpt lat="46.03695284365916" lon="11.458434146271511"><ele>468.2857142857142</ele><time>2026-05-04T15:32:12.999Z</time></trkpt><trkpt lat="46.03701640318296" lon="11.45845857067068"><ele>467.42857142857144</ele><time>2026-05-04T15:32:18.999Z</time></trkpt><trkpt lat="46.03706893397024" lon="11.458510634777289"><ele>466.57142857142856</ele><time>2026-05-04T15:32:23.999Z</time></trkpt><trkpt lat="46.03713089805456" lon="11.458530850961813"><ele>465.7142857142857</ele><time>2026-05-04T15:32:28.999Z</time></trkpt><trkpt lat="46.037205958039785" lon="11.45853984700165"><ele>464.8571428571429</ele><time>2026-05-04T15:32:33.999Z</time></trkpt><trkpt lat="46.03727183154014" lon="11.458561614428197"><ele>464.00000000000006</ele><time>2026-05-04T15:32:39Z</time></trkpt><trkpt lat="46.03733709915607" lon="11.458563494560673"><ele>464.00000000000006</ele><time>2026-05-04T15:32:45Z</time></trkpt><trkpt lat="46.03741179539665" lon="11.458587956167051"><ele>464.0</ele><time>2026-05-04T15:32:52Z</time></trkpt><trkpt lat="46.037484706143104" lon="11.458608682376878"><ele>464.00000000000006</ele><time>2026-05-04T15:32:58Z</time></trkpt><trkpt lat="46.03755522727085" lon="11.458618554190858"><ele>464.00000000000006</ele><time>2026-05-04T15:33:04Z</time></trkpt><trkpt lat="46.03759312199411" lon="11.458695930472533"><ele>464.0</ele><time>2026-05-04T15:33:08Z</time></trkpt><trkpt lat="46.03764090860808" lon="11.458602142916316"><ele>464.00000000000006</ele><time>2026-05-04T15:33:10Z</time></trkpt><trkpt lat="46.03770228179333" lon="11.45863983412795"><ele>464.00000000000006</ele><time>2026-05-04T15:33:14Z</time></trkpt><trkpt lat="46.037762707859315" lon="11.458669027463431"><ele>464.7142857142858</ele><time>2026-05-04T15:33:20Z</time></trkpt><trkpt lat="46.03783176821077" lon="11.45868802864937"><ele>465.42857142857144</ele><time>2026-05-04T15:33:25Z</time></trkpt><trkpt lat="46.037912445509846" lon="11.458710465649007"><ele>466.14285714285717</ele><time>2026-05-04T15:33:31Z</time></trkpt><trkpt lat="46.03798347108559" lon="11.458738971759201"><ele>466.8571428571429</ele><time>2026-05-04T15:33:37Z</time></trkpt><trkpt lat="46.0380475483541" lon="11.458764436433233"><ele>467.57142857142856</ele><time>2026-05-04T15:33:42Z</time></trkpt><trkpt lat="46.0381146274116" lon="11.458789081607964"><ele>468.2857142857143</ele><time>2026-05-04T15:33:48Z</time></trkpt><trkpt lat="46.038185528314436" lon="11.45879293678236"><ele>469.0</ele><time>2026-05-04T15:33:53Z</time></trkpt><trkpt lat="46.03826230114795" lon="11.45879558308629"><ele>466.42857142857144</ele><time>2026-05-04T15:33:59Z</time></trkpt><trkpt lat="46.038336618643335" lon="11.458800349739434"><ele>463.8571428571429</ele><time>2026-05-04T15:34:05Z</time></trkpt><trkpt lat="46.03840602730695" lon="11.458839455943297"><ele>461.2857142857143</ele><time>2026-05-04T15:34:10.999Z</time></trkpt><trkpt lat="46.0384780041723" lon="11.458863753920228"><ele>458.7142857142857</ele><time>2026-05-04T15:34:16.999Z</time></trkpt><trkpt lat="46.03854652565515" lon="11.458878387317686"><ele>456.14285714285717</ele><time>2026-05-04T15:34:29.999Z</time></trkpt><trkpt lat="46.03861438965789" lon="11.458909961272944"><ele>453.57142857142856</ele><time>2026-05-04T15:34:35.999Z</time></trkpt><trkpt lat="46.03867383793687" lon="11.458947179483173"><ele>451.0</ele><time>2026-05-04T15:34:40.999Z</time></trkpt><trkpt lat="46.038737206733124" lon="11.45896762994672"><ele>451.0</ele><time>2026-05-04T15:34:46Z</time></trkpt><trkpt lat="46.038801876248556" lon="11.45899395831283"><ele>451.0</ele><time>2026-05-04T15:34:51Z</time></trkpt><trkpt lat="46.03886897391756" lon="11.459004466442911"><ele>451.0</ele><time>2026-05-04T15:34:56Z</time></trkpt><trkpt lat="46.03892971448982" lon="11.459031152918048"><ele>451.0</ele><time>2026-05-04T15:35:01Z</time></trkpt><trkpt lat="46.03900618284049" lon="11.459058309673129"><ele>451.0</ele><time>2026-05-04T15:35:07Z</time></trkpt><trkpt lat="46.039076192155704" lon="11.459061254072259"><ele>451.0</ele><time>2026-05-04T15:35:12Z</time></trkpt><trkpt lat="46.039141144590644" lon="11.459057822727216"><ele>451.0</ele><time>2026-05-04T15:35:16Z</time></trkpt><trkpt lat="46.039214098748296" lon="11.459070916552262"><ele>450.4285714285714</ele><time>2026-05-04T15:35:21Z</time></trkpt><trkpt lat="46.039282268851466" lon="11.459088245287571"><ele>449.8571428571429</ele><time>2026-05-04T15:35:26Z</time></trkpt><trkpt lat="46.0393441889794" lon="11.459128273635242"><ele>449.2857142857143</ele><time>2026-05-04T15:35:31Z</time></trkpt><trkpt lat="46.03940226440197" lon="11.459172785552145"><ele>448.71428571428567</ele><time>2026-05-04T15:35:36Z</time></trkpt><trkpt lat="46.039472135261306" lon="11.459235842015001"><ele>448.1428571428571</ele><time>2026-05-04T15:35:42Z</time></trkpt><trkpt lat="46.03953288158398" lon="11.459274802823153"><ele>447.57142857142856</ele><time>2026-05-04T15:35:47Z</time></trkpt><trkpt lat="46.03959385996632" lon="11.45931365898738"><ele>447.0</ele><time>2026-05-04T15:35:52Z</time></trkpt><trkpt lat="46.0396610063157" lon="11.459363231121158"><ele>446.99999999999994</ele><time>2026-05-04T15:35:57Z</time></trkpt><trkpt lat="46.03972015784973" lon="11.459411527186653"><ele>447.0</ele><time>2026-05-04T15:36:02Z</time></trkpt><trkpt lat="46.03977972825458" lon="11.459458833232917"><ele>447.0</ele><time>2026-05-04T15:36:07Z</time></trkpt><trkpt lat="46.03985295477106" lon="11.459506667250698"><ele>447.0</ele><time>2026-05-04T15:36:12.999Z</time></trkpt><trkpt lat="46.03991494113598" lon="11.459530964563816"><ele>447.0</ele><time>2026-05-04T15:36:17.999Z</time></trkpt><trkpt lat="46.03998390922539" lon="11.459547783225657"><ele>446.99999999999994</ele><time>2026-05-04T15:36:22.999Z</time></trkpt><trkpt lat="46.04006291548907" lon="11.459575017291918"><ele>447.0</ele><time>2026-05-04T15:36:28.999Z</time></trkpt><trkpt lat="46.04014129988487" lon="11.459623572052525"><ele>446.6666666666667</ele><time>2026-05-04T15:36:53Z</time></trkpt><trkpt lat="46.040209218362094" lon="11.459691158506141"><ele>446.33333333333337</ele><time>2026-05-04T15:37:01Z</time></trkpt><trkpt lat="46.04026357590227" lon="11.459738411154115"><ele>446.0</ele><time>2026-05-04T15:37:06Z</time></trkpt><trkpt lat="46.040332318873894" lon="11.459769612708245"><ele>445.6666666666667</ele><time>2026-05-04T15:37:12Z</time></trkpt><trkpt lat="46.0402610748463" lon="11.459734805432726"><ele>445.33333333333337</ele><time>2026-05-04T15:37:18Z</time></trkpt><trkpt lat="46.04017244412639" lon="11.459685954642906"><ele>445.0</ele><time>2026-05-04T15:37:21Z</time></trkpt><trkpt lat="46.04011745162603" lon="11.45961490591127"><ele>445.0</ele><time>2026-05-04T15:37:25Z</time></trkpt><trkpt lat="46.04014573349521" lon="11.459524298867455"><ele>445.0</ele><time>2026-05-04T15:37:31Z</time></trkpt><trkpt lat="46.040200520074634" lon="11.459447774692823"><ele>445.0</ele><time>2026-05-04T15:37:37Z</time></trkpt><trkpt lat="46.04024343658208" lon="11.459368782443203"><ele>445.0</ele><time>2026-05-04T15:37:45Z</time></trkpt><trkpt lat="46.04030196499622" lon="11.459335296365484"><ele>445.0</ele><time>2026-05-04T15:37:50Z</time></trkpt><trkpt lat="46.04036641987173" lon="11.459391263442702"><ele>445.0</ele><time>2026-05-04T15:37:55Z</time></trkpt><trkpt lat="46.04043860773886" lon="11.459431936580854"><ele>445.0</ele><time>2026-05-04T15:38:01Z</time></trkpt><trkpt lat="46.040503659414995" lon="11.459474742874177"><ele>445.0</ele><time>2026-05-04T15:38:07Z</time></trkpt><trkpt lat="46.04056190858034" lon="11.459516514064704"><ele>445.0</ele><time>2026-05-04T15:38:12Z</time></trkpt><trkpt lat="46.04062211801219" lon="11.459556912567768"><ele>445.0</ele><time>2026-05-04T15:38:16.999Z</time></trkpt><trkpt lat="46.040681010606356" lon="11.459601819189569"><ele>445.0</ele><time>2026-05-04T15:38:21.999Z</time></trkpt><trkpt lat="46.040746694825096" lon="11.459645140741896"><ele>445.0</ele><time>2026-05-04T15:38:26.999Z</time></trkpt><trkpt lat="46.040816537374255" lon="11.459694828325892"><ele>445.0</ele><time>2026-05-04T15:38:32.999Z</time></trkpt><trkpt lat="46.040880929611255" lon="11.459742399646887"><ele>445.0</ele><time>2026-05-04T15:38:37.999Z</time></trkpt><trkpt lat="46.040944543671586" lon="11.459785633591993"><ele>443.6666666666667</ele><time>2026-05-04T15:38:42.999Z</time></trkpt><trkpt lat="46.041007499831" lon="11.45984567371153"><ele>442.33333333333337</ele><time>2026-05-04T15:38:48.999Z</time></trkpt><trkpt lat="46.04109380310318" lon="11.45987413407886"><ele>441.0</ele><time>2026-05-04T15:38:53.999Z</time></trkpt><trkpt lat="46.04116155606688" lon="11.459912670295195"><ele>439.66666666666663</ele><time>2026-05-04T15:39:00Z</time></trkpt><trkpt lat="46.04122001760893" lon="11.45995068789119"><ele>438.3333333333333</ele><time>2026-05-04T15:39:04Z</time></trkpt><trkpt lat="46.04129240220938" lon="11.460015234726782"><ele>437.0</ele><time>2026-05-04T15:39:10Z</time></trkpt><trkpt lat="46.04136139113194" lon="11.460069919471414"><ele>437.0</ele><time>2026-05-04T15:39:16Z</time></trkpt><trkpt lat="46.04142550738686" lon="11.46010743781677"><ele>437.0</ele><time>2026-05-04T15:39:22Z</time></trkpt><trkpt lat="46.041494511416744" lon="11.460169279416776"><ele>437.0</ele><time>2026-05-04T15:39:43Z</time></trkpt><trkpt lat="46.0414773910405" lon="11.460272298034"><ele>437.0</ele><time>2026-05-04T15:39:51Z</time></trkpt><trkpt lat="46.04140991072272" lon="11.460301931922992"><ele>437.0</ele><time>2026-05-04T15:40:03Z</time></trkpt><trkpt lat="46.041375675692834" lon="11.460401954863112"><ele>437.0</ele><time>2026-05-04T15:40:07Z</time></trkpt><trkpt lat="46.04133240599302" lon="11.460469837477318"><ele>437.0</ele><time>2026-05-04T15:40:10.999Z</time></trkpt><trkpt lat="46.041288698516404" lon="11.460547490935262"><ele>437.0</ele><time>2026-05-04T15:40:15.999Z</time></trkpt><trkpt lat="46.04126145718553" lon="11.460631760486205"><ele>437.0</ele><time>2026-05-04T15:40:25.999Z</time></trkpt><trkpt lat="46.04124200918899" lon="11.460718609565722"><ele>437.0</ele><time>2026-05-04T15:40:30.999Z</time></trkpt><trkpt lat="46.041220862220875" lon="11.4608050232122"><ele>437.0</ele><time>2026-05-04T15:40:35.999Z</time></trkpt><trkpt lat="46.04119643942264" lon="11.460904945145195"><ele>437.0</ele><time>2026-05-04T15:40:41.999Z</time></trkpt><trkpt lat="46.04116926780217" lon="11.461004471257551"><ele>437.0</ele><time>2026-05-04T15:40:47.999Z</time></trkpt><trkpt lat="46.041153661914954" lon="11.461120745811513"><ele>437.0</ele><time>2026-05-04T15:40:54.999Z</time></trkpt><trkpt lat="46.04114333571436" lon="11.46122024958511"><ele>437.4285714285714</ele><time>2026-05-04T15:41:00.999Z</time></trkpt><trkpt lat="46.04114535213618" lon="11.461321391169918"><ele>437.8571428571429</ele><time>2026-05-04T15:41:07Z</time></trkpt><trkpt lat="46.041130341721995" lon="11.46144250609917"><ele>438.2857142857143</ele><time>2026-05-04T15:41:14Z</time></trkpt><trkpt lat="46.04106746853169" lon="11.461491557778121"><ele>438.71428571428567</ele><time>2026-05-04T15:41:26Z</time></trkpt><trkpt lat="46.04100713924833" lon="11.461454493616795"><ele>439.1428571428571</ele><time>2026-05-04T15:41:31Z</time></trkpt><trkpt lat="46.04094618777357" lon="11.46140800104337"><ele>439.57142857142856</ele><time>2026-05-04T15:41:37Z</time></trkpt><trkpt lat="46.04089211965514" lon="11.461358993365433"><ele>440.0</ele><time>2026-05-04T15:41:42Z</time></trkpt><trkpt lat="46.04082280591143" lon="11.461330796737535"><ele>441.4285714285714</ele><time>2026-05-04T15:41:48Z</time></trkpt><trkpt lat="46.0407553074248" lon="11.461316420467586"><ele>442.8571428571429</ele><time>2026-05-04T15:41:54Z</time></trkpt><trkpt lat="46.04068609829586" lon="11.461290874081428"><ele>444.28571428571433</ele><time>2026-05-04T15:42:00Z</time></trkpt><trkpt lat="46.04061901448963" lon="11.4613150603395"><ele>445.7142857142857</ele><time>2026-05-04T15:42:05Z</time></trkpt><trkpt lat="46.04055337449785" lon="11.461345613331146"><ele>447.14285714285717</ele><time>2026-05-04T15:42:12Z</time></trkpt><trkpt lat="46.04048842949574" lon="11.46135646579763"><ele>448.5714285714286</ele><time>2026-05-04T15:42:19.999Z</time></trkpt><trkpt lat="46.04041023341359" lon="11.461348984421067"><ele>450.00000000000006</ele><time>2026-05-04T15:42:26.999Z</time></trkpt><trkpt lat="46.04034321646402" lon="11.461360454174804"><ele>450.00000000000006</ele><time>2026-05-04T15:42:31.999Z</time></trkpt><trkpt lat="46.04027806820828" lon="11.46137561098597"><ele>450.0</ele><time>2026-05-04T15:42:53.999Z</time></trkpt><trkpt lat="46.040214505714495" lon="11.461387911276116"><ele>450.00000000000006</ele><time>2026-05-04T15:42:58.999Z</time></trkpt><trkpt lat="46.040146008662184" lon="11.461398390820445"><ele>450.00000000000006</ele><time>2026-05-04T15:43:04.999Z</time></trkpt><trkpt lat="46.040086987453115" lon="11.461444233489257"><ele>450.0</ele><time>2026-05-04T15:43:10Z</time></trkpt><trkpt lat="46.04002181958718" lon="11.46147597013773"><ele>450.00000000000006</ele><time>2026-05-04T15:43:16Z</time></trkpt><trkpt lat="46.03995770328266" lon="11.461488089261264"><ele>450.00000000000006</ele><time>2026-05-04T15:43:22Z</time></trkpt><trkpt lat="46.039891081323056" lon="11.461510402108503"><ele>451.00000000000006</ele><time>2026-05-04T15:43:28Z</time></trkpt><trkpt lat="46.039823349917675" lon="11.461509922205892"><ele>452.0</ele><time>2026-05-04T15:43:39Z</time></trkpt><trkpt lat="46.03975340622627" lon="11.461519658088937"><ele>453.00000000000006</ele><time>2026-05-04T15:43:45Z</time></trkpt><trkpt lat="46.039682975585926" lon="11.46152484106608"><ele>454.00000000000006</ele><time>2026-05-04T15:43:51Z</time></trkpt><trkpt lat="46.03961356241402" lon="11.461525765696575"><ele>455.0</ele><time>2026-05-04T15:43:57Z</time></trkpt><trkpt lat="46.039544518923094" lon="11.461516697552282"><ele>456.00000000000006</ele><time>2026-05-04T15:44:03Z</time></trkpt><trkpt lat="46.039479755928674" lon="11.46151905375419"><ele>457.00000000000006</ele><time>2026-05-04T15:44:09Z</time></trkpt><trkpt lat="46.03941434623626" lon="11.461513474504574"><ele>457.00000000000006</ele><time>2026-05-04T15:44:15Z</time></trkpt><trkpt lat="46.03934980021976" lon="11.461506397601067"><ele>457.0</ele><time>2026-05-04T15:44:24.999Z</time></trkpt><trkpt lat="46.03927837708262" lon="11.461514219132615"><ele>457.00000000000006</ele><time>2026-05-04T15:44:30.999Z</time></trkpt><trkpt lat="46.03920777971054" lon="11.46151099276598"><ele>457.00000000000006</ele><time>2026-05-04T15:44:36.999Z</time></trkpt><trkpt lat="46.03913808130635" lon="11.461501809807903"><ele>457.0</ele><time>2026-05-04T15:44:42.999Z</time></trkpt><trkpt lat="46.039067920603486" lon="11.461499922684187"><ele>457.00000000000006</ele><time>2026-05-04T15:44:48.999Z</time></trkpt><trkpt lat="46.03899775542056" lon="11.46149674309182"><ele>457.00000000000006</ele><time>2026-05-04T15:44:54.999Z</time></trkpt><trkpt lat="46.03892395917074" lon="11.461503912798591"><ele>458.1428571428572</ele><time>2026-05-04T15:45:00.999Z</time></trkpt><trkpt lat="46.03885710116004" lon="11.461501046990179"><ele>459.28571428571433</ele><time>2026-05-04T15:45:06.999Z</time></trkpt><trkpt lat="46.03878243651343" lon="11.461510826865528"><ele>460.42857142857144</ele><time>2026-05-04T15:45:15Z</time></trkpt><trkpt lat="46.03871572563815" lon="11.461516419721061"><ele>461.5714285714286</ele><time>2026-05-04T15:45:21Z</time></trkpt><trkpt lat="46.0386476856542" lon="11.461530325013143"><ele>462.7142857142858</ele><time>2026-05-04T15:45:27Z</time></trkpt><trkpt lat="46.038573493820586" lon="11.461529272216955"><ele>463.85714285714283</ele><time>2026-05-04T15:45:33Z</time></trkpt><trkpt lat="46.03850364599536" lon="11.46152744204115"><ele>465.0</ele><time>2026-05-04T15:45:52Z</time></trkpt><trkpt lat="46.038431696459384" lon="11.461531268137005"><ele>465.0</ele><time>2026-05-04T15:45:59Z</time></trkpt><trkpt lat="46.038363140771196" lon="11.46153995101183"><ele>465.0</ele><time>2026-05-04T15:46:05Z</time></trkpt><trkpt lat="46.038295526328106" lon="11.461552622897276"><ele>465.0</ele><time>2026-05-04T15:46:11Z</time></trkpt><trkpt lat="46.03823058587082" lon="11.461564869135506"><ele>465.0</ele><time>2026-05-04T15:46:17Z</time></trkpt><trkpt lat="46.03815944101384" lon="11.461567747669482"><ele>465.0</ele><time>2026-05-04T15:46:30.999Z</time></trkpt><trkpt lat="46.0380951490097" lon="11.46158592555309"><ele>465.0</ele><time>2026-05-04T15:46:36.999Z</time></trkpt><trkpt lat="46.03802790790772" lon="11.461597207776167"><ele>465.0</ele><time>2026-05-04T15:46:42.999Z</time></trkpt><trkpt lat="46.03796279671666" lon="11.461606260540592"><ele>466.2857142857143</ele><time>2026-05-04T15:46:48.999Z</time></trkpt><trkpt lat="46.037892188581495" lon="11.461618753084702"><ele>467.57142857142856</ele><time>2026-05-04T15:46:54.999Z</time></trkpt><trkpt lat="46.037824911987975" lon="11.461626023781184"><ele>468.85714285714283</ele><time>2026-05-04T15:47:00.999Z</time></trkpt><trkpt lat="46.037759267046475" lon="11.461633379422576"><ele>470.1428571428571</ele><time>2026-05-04T15:47:06.999Z</time></trkpt><trkpt lat="46.03769555320919" lon="11.461631947231503"><ele>471.42857142857144</ele><time>2026-05-04T15:47:12.999Z</time></trkpt><trkpt lat="46.03762491644153" lon="11.461634081760117"><ele>472.71428571428567</ele><time>2026-05-04T15:47:34Z</time></trkpt><trkpt lat="46.037564814830766" lon="11.461663459203354"><ele>473.99999999999994</ele><time>2026-05-04T15:47:41Z</time></trkpt><trkpt lat="46.03750089088705" lon="11.461698116249336"><ele>474.99999999999994</ele><time>2026-05-04T15:47:51Z</time></trkpt><trkpt lat="46.03743764123476" lon="11.461737728798939"><ele>476.0</ele><time>2026-05-04T15:47:57Z</time></trkpt><trkpt lat="46.0373701483115" lon="11.461781323234957"><ele>476.99999999999994</ele><time>2026-05-04T15:48:08Z</time></trkpt><trkpt lat="46.03730420330369" lon="11.46182076238086"><ele>477.99999999999994</ele><time>2026-05-04T15:48:14Z</time></trkpt><trkpt lat="46.03724052979594" lon="11.461849823247817"><ele>479.0</ele><time>2026-05-04T15:48:20Z</time></trkpt><trkpt lat="46.037176777447286" lon="11.461873078993841"><ele>479.99999999999994</ele><time>2026-05-04T15:48:26Z</time></trkpt><trkpt lat="46.03711552982808" lon="11.461894855583854"><ele>480.99999999999994</ele><time>2026-05-04T15:48:31.999Z</time></trkpt><trkpt lat="46.037045138282295" lon="11.461935147358133"><ele>480.99999999999994</ele><time>2026-05-04T15:48:41.999Z</time></trkpt><trkpt lat="46.03697532502695" lon="11.461956014777215"><ele>481.0</ele><time>2026-05-04T15:48:47.999Z</time></trkpt><trkpt lat="46.036907825926875" lon="11.46197494537767"><ele>480.99999999999994</ele><time>2026-05-04T15:48:53.999Z</time></trkpt><trkpt lat="46.03684898201827" lon="11.462011235273874"><ele>480.99999999999994</ele><time>2026-05-04T15:49:06.999Z</time></trkpt><trkpt lat="46.0367856076457" lon="11.462031840768917"><ele>481.0</ele><time>2026-05-04T15:49:11.999Z</time></trkpt><trkpt lat="46.036712536436966" lon="11.462042478544383"><ele>480.99999999999994</ele><time>2026-05-04T15:49:17.999Z</time></trkpt><trkpt lat="46.03663888345104" lon="11.462041684632023"><ele>480.99999999999994</ele><time>2026-05-04T15:49:23.999Z</time></trkpt><trkpt lat="46.03657631248318" lon="11.46201894022227"><ele>482.8571428571428</ele><time>2026-05-04T15:49:30Z</time></trkpt><trkpt lat="46.03649991218637" lon="11.462007944957223"><ele>484.71428571428567</ele><time>2026-05-04T15:49:36Z</time></trkpt><trkpt lat="46.03643190273512" lon="11.461996791090572"><ele>486.57142857142856</ele><time>2026-05-04T15:49:42Z</time></trkpt><trkpt lat="46.03636258118075" lon="11.46199486283984"><ele>488.4285714285714</ele><time>2026-05-04T15:49:48Z</time></trkpt><trkpt lat="46.03629447883948" lon="11.461988303914291"><ele>490.2857142857142</ele><time>2026-05-04T15:49:54Z</time></trkpt><trkpt lat="46.03622878557784" lon="11.462016404439028"><ele>492.14285714285717</ele><time>2026-05-04T15:50:00Z</time></trkpt><trkpt lat="46.03616711693165" lon="11.462060850676203"><ele>494.0</ele><time>2026-05-04T15:50:06Z</time></trkpt><trkpt lat="46.036101873535415" lon="11.462101265495514"><ele>494.28571428571433</ele><time>2026-05-04T15:50:12Z</time></trkpt><trkpt lat="46.036040999961955" lon="11.462143436021776"><ele>494.57142857142856</ele><time>2026-05-04T15:50:18Z</time></trkpt><trkpt lat="46.035981195585606" lon="11.46219405409357"><ele>494.8571428571429</ele><time>2026-05-04T15:50:24Z</time></trkpt><trkpt lat="46.03591659745759" lon="11.462234262571123"><ele>495.14285714285717</ele><time>2026-05-04T15:50:34.999Z</time></trkpt><trkpt lat="46.03585407993046" lon="11.462273178630651"><ele>495.42857142857144</ele><time>2026-05-04T15:50:40.999Z</time></trkpt><trkpt lat="46.035790238307825" lon="11.462310429787829"><ele>495.7142857142857</ele><time>2026-05-04T15:50:46.999Z</time></trkpt><trkpt lat="46.035727258245146" lon="11.462351103866146"><ele>496.0</ele><time>2026-05-04T15:50:52.999Z</time></trkpt><trkpt lat="46.03566394311083" lon="11.4623900108387"><ele>497.42857142857144</ele><time>2026-05-04T15:50:58.999Z</time></trkpt><trkpt lat="46.03559893531357" lon="11.462435503597044"><ele>498.8571428571429</ele><time>2026-05-04T15:51:10.999Z</time></trkpt><trkpt lat="46.035535954979636" lon="11.462484412071538"><ele>500.28571428571433</ele><time>2026-05-04T15:51:16.999Z</time></trkpt><trkpt lat="46.03547481091095" lon="11.462526154514613"><ele>501.7142857142858</ele><time>2026-05-04T15:51:22.999Z</time></trkpt><trkpt lat="46.03541904708441" lon="11.462568763235796"><ele>503.14285714285717</ele><time>2026-05-04T15:51:27.999Z</time></trkpt><trkpt lat="46.035358154729025" lon="11.462602017397996"><ele>504.57142857142867</ele><time>2026-05-04T15:51:34Z</time></trkpt><trkpt lat="46.03529815477097" lon="11.462651933703224"><ele>506.00000000000006</ele><time>2026-05-04T15:51:40Z</time></trkpt><trkpt lat="46.03523363641238" lon="11.46268896731659"><ele>506.00000000000006</ele><time>2026-05-04T15:51:46Z</time></trkpt><trkpt lat="46.03517393045923" lon="11.462722386065682"><ele>506.0</ele><time>2026-05-04T15:51:54Z</time></trkpt><trkpt lat="46.03509004695557" lon="11.46268941999593"><ele>506.00000000000006</ele><time>2026-05-04T15:52:12Z</time></trkpt><trkpt lat="46.03510796587593" lon="11.462596969138893"><ele>506.00000000000006</ele><time>2026-05-04T15:52:18Z</time></trkpt><trkpt lat="46.035079783198064" lon="11.462511548609852"><ele>506.0</ele><time>2026-05-04T15:52:23Z</time></trkpt><trkpt lat="46.03508486970735" lon="11.462420942553745"><ele>506.00000000000006</ele><time>2026-05-04T15:52:28Z</time></trkpt><trkpt lat="46.03509255544942" lon="11.462330299890022"><ele>506.00000000000006</ele><time>2026-05-04T15:52:34Z</time></trkpt><trkpt lat="46.03508658308342" lon="11.462228183682202"><ele>505.8333333333333</ele><time>2026-05-04T15:52:37.999Z</time></trkpt><trkpt lat="46.03507707182206" lon="11.462112334146614"><ele>505.66666666666663</ele><time>2026-05-04T15:52:39.999Z</time></trkpt><trkpt lat="46.03510516181916" lon="11.462009087186974"><ele>505.5</ele><time>2026-05-04T15:52:43.999Z</time></trkpt><trkpt lat="46.03509823566742" lon="11.461890783950329"><ele>505.33333333333337</ele><time>2026-05-04T15:52:47.999Z</time></trkpt><trkpt lat="46.035086217223096" lon="11.461797040979288"><ele>505.1666666666667</ele><time>2026-05-04T15:52:49.999Z</time></trkpt><trkpt lat="46.03502211194056" lon="11.461737545979197"><ele>505.0</ele><time>2026-05-04T15:52:57.999Z</time></trkpt><trkpt lat="46.034969629903586" lon="11.461670479581235"><ele>505.50000000000006</ele><time>2026-05-04T15:53:02.999Z</time></trkpt><trkpt lat="46.03492187053027" lon="11.461580772069942"><ele>506.0</ele><time>2026-05-04T15:53:08.999Z</time></trkpt><trkpt lat="46.03488250470607" lon="11.461465236886857"><ele>506.5</ele><time>2026-05-04T15:53:14.999Z</time></trkpt><trkpt lat="46.03482174900757" lon="11.461424328451406"><ele>507.0</ele><time>2026-05-04T15:53:20.999Z</time></trkpt><trkpt lat="46.034776013791344" lon="11.461351722842688"><ele>507.50000000000006</ele><time>2026-05-04T15:53:25.999Z</time></trkpt><trkpt lat="46.0347360273732" lon="11.461269295500397"><ele>508.0</ele><time>2026-05-04T15:53:31.999Z</time></trkpt><trkpt lat="46.034680764726076" lon="11.4611870122002"><ele>508.0</ele><time>2026-05-04T15:53:36.999Z</time></trkpt><trkpt lat="46.0346261927627" lon="11.461129918870112"><ele>508.0</ele><time>2026-05-04T15:53:44Z</time></trkpt><trkpt lat="46.034562718203006" lon="11.461077510289524"><ele>508.0</ele><time>2026-05-04T15:53:50Z</time></trkpt><trkpt lat="46.0345054978777" lon="11.461023430121653"><ele>508.0</ele><time>2026-05-04T15:53:56Z</time></trkpt><trkpt lat="46.034453789852115" lon="11.460942470629055"><ele>508.0</ele><time>2026-05-04T15:54:02Z</time></trkpt><trkpt lat="46.034407947049495" lon="11.460867653970483"><ele>508.0</ele><time>2026-05-04T15:54:08Z</time></trkpt><trkpt lat="46.03435840097467" lon="11.460796141114551"><ele>508.0</ele><time>2026-05-04T15:54:14Z</time></trkpt><trkpt lat="46.03428486387973" lon="11.460714352899789"><ele>508.0</ele><time>2026-05-04T15:54:20Z</time></trkpt><trkpt lat="46.03422853090971" lon="11.46065207101874"><ele>508.0</ele><time>2026-05-04T15:54:26Z</time></trkpt><trkpt lat="46.03417463165903" lon="11.460599604482795"><ele>508.0</ele><time>2026-05-04T15:54:31Z</time></trkpt><trkpt lat="46.034125145221815" lon="11.460529895533613"><ele>508.0</ele><time>2026-05-04T15:54:37Z</time></trkpt><trkpt lat="46.03409189778294" lon="11.460439921101635"><ele>508.0</ele><time>2026-05-04T15:54:41.999Z</time></trkpt><trkpt lat="46.03404235598333" lon="11.460371740858054"><ele>508.0</ele><time>2026-05-04T15:54:47.999Z</time></trkpt><trkpt lat="46.03401190995903" lon="11.460282364863126"><ele>508.0</ele><time>2026-05-04T15:54:53.999Z</time></trkpt><trkpt lat="46.03397960668302" lon="11.460185599701196"><ele>509.14285714285717</ele><time>2026-05-04T15:54:59.999Z</time></trkpt><trkpt lat="46.03394657337484" lon="11.460106399931279"><ele>510.2857142857142</ele><time>2026-05-04T15:55:05.999Z</time></trkpt><trkpt lat="46.033912617565214" lon="11.46001099456746"><ele>511.4285714285714</ele><time>2026-05-04T15:55:11.999Z</time></trkpt><trkpt lat="46.033895006254916" lon="11.459881203112968"><ele>512.5714285714286</ele><time>2026-05-04T15:55:14.999Z</time></trkpt><trkpt lat="46.03382397697788" lon="11.459912536817491"><ele>513.7142857142857</ele><time>2026-05-04T15:55:17.999Z</time></trkpt><trkpt lat="46.0338278414649" lon="11.459814014865817"><ele>514.8571428571428</ele><time>2026-05-04T15:55:24.999Z</time></trkpt><trkpt lat="46.0337889490462" lon="11.459736078036887"><ele>516.0</ele><time>2026-05-04T15:55:30.999Z</time></trkpt><trkpt lat="46.0337534791523" lon="11.459645073461362"><ele>515.9999999999999</ele><time>2026-05-04T15:55:37.999Z</time></trkpt><trkpt lat="46.03372052464945" lon="11.459554862946495"><ele>516.0</ele><time>2026-05-04T15:55:44Z</time></trkpt><trkpt lat="46.033684773118935" lon="11.45947742557306"><ele>516.0</ele><time>2026-05-04T15:55:49Z</time></trkpt><trkpt lat="46.03365462164181" lon="11.45937970883543"><ele>516.0</ele><time>2026-05-04T15:55:55Z</time></trkpt><trkpt lat="46.03362262415117" lon="11.459281845455946"><ele>516.0</ele><time>2026-05-04T15:56:01Z</time></trkpt><trkpt lat="46.03359742261259" lon="11.459185047477304"><ele>515.9999999999999</ele><time>2026-05-04T15:56:09Z</time></trkpt><trkpt lat="46.033575271648026" lon="11.45909125489575"><ele>516.0</ele><time>2026-05-04T15:56:15Z</time></trkpt><trkpt lat="46.033543595457246" lon="11.458997662567718"><ele>515.9999999999999</ele><time>2026-05-04T15:56:21Z</time></trkpt><trkpt lat="46.03351159742121" lon="11.458918971943675"><ele>516.0</ele><time>2026-05-04T15:56:27Z</time></trkpt><trkpt lat="46.033511249272216" lon="11.458827861388182"><ele>516.0</ele><time>2026-05-04T15:56:35Z</time></trkpt><trkpt lat="46.033538804269185" lon="11.458739197461586"><ele>516.0</ele><time>2026-05-04T15:56:44Z</time></trkpt><trkpt lat="46.03361921706092" lon="11.458728670260033"><ele>516.0</ele><time>2026-05-04T15:56:51.999Z</time></trkpt><trkpt lat="46.03369854707577" lon="11.458695103579847"><ele>515.9999999999999</ele><time>2026-05-04T15:56:57.999Z</time></trkpt><trkpt lat="46.033773347637826" lon="11.458688552313822"><ele>516.0</ele><time>2026-05-04T15:57:02.999Z</time></trkpt><trkpt lat="46.03383560764845" lon="11.458729135714465"><ele>515.9999999999999</ele><time>2026-05-04T15:57:08.999Z</time></trkpt><trkpt lat="46.03385539215282" lon="11.458817460843731"><ele>516.0</ele><time>2026-05-04T15:57:48.999Z</time></trkpt><trkpt lat="46.03388403403327" lon="11.45891830300705"><ele>516.0</ele><time>2026-05-04T15:57:54Z</time></trkpt><trkpt lat="46.03391732476878" lon="11.459006295719087"><ele>516.0</ele><time>2026-05-04T15:57:59Z</time></trkpt><trkpt lat="46.03394719865077" lon="11.459097029202665"><ele>516.0</ele><time>2026-05-04T15:58:05Z</time></trkpt><trkpt lat="46.03397349430362" lon="11.459185361936477"><ele>515.9999999999999</ele><time>2026-05-04T15:58:10Z</time></trkpt><trkpt lat="46.034003050225394" lon="11.459266326698847"><ele>516.0</ele><time>2026-05-04T15:58:15Z</time></trkpt><trkpt lat="46.034027694862715" lon="11.459370399396924"><ele>515.9999999999999</ele><time>2026-05-04T15:58:21Z</time></trkpt><trkpt lat="46.034067584732696" lon="11.459461793330396"><ele>516.0</ele><time>2026-05-04T15:58:26Z</time></trkpt><trkpt lat="46.03406164038505" lon="11.459556806730571"><ele>516.0</ele><time>2026-05-04T15:58:31Z</time></trkpt><trkpt lat="46.03402342159221" lon="11.459633356569764"><ele>516.0</ele><time>2026-05-04T15:58:36Z</time></trkpt><trkpt lat="46.033955733817365" lon="11.459678827353972"><ele>516.0</ele><time>2026-05-04T15:58:42Z</time></trkpt><trkpt lat="46.03390070530041" lon="11.459736947146412"><ele>515.9999999999999</ele><time>2026-05-04T15:58:47Z</time></trkpt><trkpt lat="46.03390077281447" lon="11.459835911670753"><ele>516.0</ele><time>2026-05-04T15:58:55Z</time></trkpt><trkpt lat="46.03394658747646" lon="11.459901599827909"><ele>516.0</ele><time>2026-05-04T15:59:02.999Z</time></trkpt><trkpt lat="46.03384944123773" lon="11.45988502177828"><ele>516.0</ele><time>2026-05-04T16:01:19.999Z</time></trkpt><trkpt lat="46.033881612963775" lon="11.459971549061502"><ele>516.0</ele><time>2026-05-04T16:01:21.999Z</time></trkpt><trkpt lat="46.033931991617955" lon="11.45991654270405"><ele>516.0</ele><time>2026-05-04T16:01:37.999Z</time></trkpt><trkpt lat="46.033892083793816" lon="11.45982148210749"><ele>516.0</ele><time>2026-05-04T16:05:46.999Z</time></trkpt><trkpt lat="46.03385416941405" lon="11.45973590571696"><ele>516.0</ele><time>2026-05-04T16:06:00.999Z</time></trkpt></trkseg></trk></gpx>